<?xml version="1.0" encoding="UTF-8" standalone="no" ?>
<gpx xmlns="http://www.topografix.com/GPX/1/1" xmlns:xsi="http://www.w3.org/2001/XMLSchema-instance" xsi:schemaLocation="http://www.topografix.com/GPX/1/1 http://www.topografix.com/GPX/1/1/gpx.xsd" version="1.1" creator="VisuGPX - https://www.visugpx.com">
  <metadata>
    <name>Rosablanche par Cleuson</name>
    <desc><![CDATA[Départ de la station de ski de Super Nendaz à Siviez vers 8:45. On monte rive droite par un sentier qui n'en finit pas et qui monte très peu. En passant on admire le lac à moitié dégelé puis on passe au-dessus du barrage. Les choses sérieuses commencent - on s'élève progressivement, toujours rive droite et finalement on oblique à gauche sur le glacier du Grand Désert. C'est magnifique !

Encore une petite montée et dans le froid nous arrivons au collu sous la Rosablanche puis en laissant les skis en 5mn on est au sommet avec une vue superbe.
Redescente plus ou moins par le même itinéraire, avec une remontée en peaux pour éviter le bord du lac.]]></desc>
  </metadata>
  <trk>
    <name><![CDATA[Track 2018-12-31 08_45_42 1]]></name>
    <trkseg>
      <trkpt lat="46.13558" lon="7.31694">
        <ele>1727.1</ele>
        <time>2018-12-31T07:45:47Z</time>
      </trkpt>
      <trkpt lat="46.13552" lon="7.31716">
        <ele>1736.6</ele>
        <time>2018-12-31T07:47:38Z</time>
      </trkpt>
      <trkpt lat="46.13539" lon="7.31732">
        <ele>1739.9</ele>
        <time>2018-12-31T07:47:58Z</time>
      </trkpt>
      <trkpt lat="46.13524" lon="7.3174">
        <ele>1742.4</ele>
        <time>2018-12-31T07:48:08Z</time>
      </trkpt>
      <trkpt lat="46.13508" lon="7.31745">
        <ele>1739.3</ele>
        <time>2018-12-31T07:48:18Z</time>
      </trkpt>
      <trkpt lat="46.13494" lon="7.31758">
        <ele>1738.5</ele>
        <time>2018-12-31T07:48:28Z</time>
      </trkpt>
      <trkpt lat="46.13482" lon="7.31773">
        <ele>1739.7</ele>
        <time>2018-12-31T07:48:38Z</time>
      </trkpt>
      <trkpt lat="46.13467" lon="7.31784">
        <ele>1738.8</ele>
        <time>2018-12-31T07:48:53Z</time>
      </trkpt>
      <trkpt lat="46.13452" lon="7.31803">
        <ele>1739.1</ele>
        <time>2018-12-31T07:49:08Z</time>
      </trkpt>
      <trkpt lat="46.13439" lon="7.3182">
        <ele>1740.9</ele>
        <time>2018-12-31T07:49:23Z</time>
      </trkpt>
      <trkpt lat="46.13427" lon="7.31838">
        <ele>1742.2</ele>
        <time>2018-12-31T07:49:38Z</time>
      </trkpt>
      <trkpt lat="46.13413" lon="7.31855">
        <ele>1744.4</ele>
        <time>2018-12-31T07:49:53Z</time>
      </trkpt>
      <trkpt lat="46.13397" lon="7.31864">
        <ele>1747.5</ele>
        <time>2018-12-31T07:50:08Z</time>
      </trkpt>
      <trkpt lat="46.13383" lon="7.31876">
        <ele>1747.2</ele>
        <time>2018-12-31T07:50:23Z</time>
      </trkpt>
      <trkpt lat="46.13366" lon="7.31875">
        <ele>1747.2</ele>
        <time>2018-12-31T07:50:38Z</time>
      </trkpt>
      <trkpt lat="46.13348" lon="7.31873">
        <ele>1749.2</ele>
        <time>2018-12-31T07:50:53Z</time>
      </trkpt>
      <trkpt lat="46.13334" lon="7.31863">
        <ele>1748.4</ele>
        <time>2018-12-31T07:51:08Z</time>
      </trkpt>
      <trkpt lat="46.13321" lon="7.31855">
        <ele>1751.8</ele>
        <time>2018-12-31T07:51:23Z</time>
      </trkpt>
      <trkpt lat="46.13309" lon="7.31845">
        <ele>1756.3</ele>
        <time>2018-12-31T07:51:33Z</time>
      </trkpt>
      <trkpt lat="46.13293" lon="7.31832">
        <ele>1758.1</ele>
        <time>2018-12-31T07:51:48Z</time>
      </trkpt>
      <trkpt lat="46.13281" lon="7.31822">
        <ele>1757.3</ele>
        <time>2018-12-31T07:52:03Z</time>
      </trkpt>
      <trkpt lat="46.13269" lon="7.31812">
        <ele>1761.1</ele>
        <time>2018-12-31T07:52:13Z</time>
      </trkpt>
      <trkpt lat="46.13256" lon="7.31797">
        <ele>1762.8</ele>
        <time>2018-12-31T07:52:28Z</time>
      </trkpt>
      <trkpt lat="46.13243" lon="7.31788">
        <ele>1763.4</ele>
        <time>2018-12-31T07:52:43Z</time>
      </trkpt>
      <trkpt lat="46.13227" lon="7.31777">
        <ele>1766</ele>
        <time>2018-12-31T07:52:58Z</time>
      </trkpt>
      <trkpt lat="46.13212" lon="7.31774">
        <ele>1767</ele>
        <time>2018-12-31T07:53:18Z</time>
      </trkpt>
      <trkpt lat="46.13197" lon="7.31766">
        <ele>1763.9</ele>
        <time>2018-12-31T07:53:33Z</time>
      </trkpt>
      <trkpt lat="46.1318" lon="7.31762">
        <ele>1767.9</ele>
        <time>2018-12-31T07:53:48Z</time>
      </trkpt>
      <trkpt lat="46.13163" lon="7.31759">
        <ele>1772.4</ele>
        <time>2018-12-31T07:54:03Z</time>
      </trkpt>
      <trkpt lat="46.13147" lon="7.31753">
        <ele>1769.8</ele>
        <time>2018-12-31T07:54:18Z</time>
      </trkpt>
      <trkpt lat="46.13133" lon="7.31746">
        <ele>1770</ele>
        <time>2018-12-31T07:54:28Z</time>
      </trkpt>
      <trkpt lat="46.13118" lon="7.31742">
        <ele>1773.7</ele>
        <time>2018-12-31T07:54:38Z</time>
      </trkpt>
      <trkpt lat="46.13104" lon="7.31738">
        <ele>1775</ele>
        <time>2018-12-31T07:54:48Z</time>
      </trkpt>
      <trkpt lat="46.13084" lon="7.31735">
        <ele>1773.3</ele>
        <time>2018-12-31T07:55:03Z</time>
      </trkpt>
      <trkpt lat="46.1307" lon="7.31733">
        <ele>1775.3</ele>
        <time>2018-12-31T07:55:13Z</time>
      </trkpt>
      <trkpt lat="46.13059" lon="7.31721">
        <ele>1777.4</ele>
        <time>2018-12-31T07:55:23Z</time>
      </trkpt>
      <trkpt lat="46.13045" lon="7.31714">
        <ele>1776.1</ele>
        <time>2018-12-31T07:55:33Z</time>
      </trkpt>
      <trkpt lat="46.1303" lon="7.31712">
        <ele>1775.4</ele>
        <time>2018-12-31T07:55:43Z</time>
      </trkpt>
      <trkpt lat="46.13016" lon="7.31719">
        <ele>1777.6</ele>
        <time>2018-12-31T07:55:53Z</time>
      </trkpt>
      <trkpt lat="46.13002" lon="7.31731">
        <ele>1779.2</ele>
        <time>2018-12-31T07:56:08Z</time>
      </trkpt>
      <trkpt lat="46.12986" lon="7.3174">
        <ele>1777.2</ele>
        <time>2018-12-31T07:56:18Z</time>
      </trkpt>
      <trkpt lat="46.1297" lon="7.31745">
        <ele>1776.8</ele>
        <time>2018-12-31T07:56:33Z</time>
      </trkpt>
      <trkpt lat="46.12956" lon="7.31755">
        <ele>1780</ele>
        <time>2018-12-31T07:56:43Z</time>
      </trkpt>
      <trkpt lat="46.12941" lon="7.31766">
        <ele>1778.7</ele>
        <time>2018-12-31T07:56:58Z</time>
      </trkpt>
      <trkpt lat="46.12922" lon="7.31776">
        <ele>1778.1</ele>
        <time>2018-12-31T07:57:13Z</time>
      </trkpt>
      <trkpt lat="46.12908" lon="7.3179">
        <ele>1783.5</ele>
        <time>2018-12-31T07:57:28Z</time>
      </trkpt>
      <trkpt lat="46.12892" lon="7.31787">
        <ele>1782.8</ele>
        <time>2018-12-31T07:57:38Z</time>
      </trkpt>
      <trkpt lat="46.12871" lon="7.31785">
        <ele>1780.4</ele>
        <time>2018-12-31T07:57:53Z</time>
      </trkpt>
      <trkpt lat="46.12854" lon="7.31792">
        <ele>1779.2</ele>
        <time>2018-12-31T07:58:08Z</time>
      </trkpt>
      <trkpt lat="46.12842" lon="7.31803">
        <ele>1779.2</ele>
        <time>2018-12-31T07:58:18Z</time>
      </trkpt>
      <trkpt lat="46.12829" lon="7.3182">
        <ele>1784.6</ele>
        <time>2018-12-31T07:58:33Z</time>
      </trkpt>
      <trkpt lat="46.12813" lon="7.31828">
        <ele>1787.6</ele>
        <time>2018-12-31T07:58:48Z</time>
      </trkpt>
      <trkpt lat="46.12797" lon="7.31827">
        <ele>1788.1</ele>
        <time>2018-12-31T07:59:03Z</time>
      </trkpt>
      <trkpt lat="46.12783" lon="7.31825">
        <ele>1789.1</ele>
        <time>2018-12-31T07:59:13Z</time>
      </trkpt>
      <trkpt lat="46.12769" lon="7.31821">
        <ele>1791.5</ele>
        <time>2018-12-31T07:59:28Z</time>
      </trkpt>
      <trkpt lat="46.12751" lon="7.3182">
        <ele>1795.6</ele>
        <time>2018-12-31T07:59:43Z</time>
      </trkpt>
      <trkpt lat="46.12737" lon="7.31817">
        <ele>1794.5</ele>
        <time>2018-12-31T07:59:58Z</time>
      </trkpt>
      <trkpt lat="46.12723" lon="7.3181">
        <ele>1792.4</ele>
        <time>2018-12-31T08:00:13Z</time>
      </trkpt>
      <trkpt lat="46.12706" lon="7.31805">
        <ele>1795.5</ele>
        <time>2018-12-31T08:00:28Z</time>
      </trkpt>
      <trkpt lat="46.1269" lon="7.31805">
        <ele>1800.2</ele>
        <time>2018-12-31T08:00:43Z</time>
      </trkpt>
      <trkpt lat="46.12673" lon="7.31811">
        <ele>1802.2</ele>
        <time>2018-12-31T08:01:03Z</time>
      </trkpt>
      <trkpt lat="46.12658" lon="7.31815">
        <ele>1805.9</ele>
        <time>2018-12-31T08:01:18Z</time>
      </trkpt>
      <trkpt lat="46.12642" lon="7.31808">
        <ele>1809.8</ele>
        <time>2018-12-31T08:01:33Z</time>
      </trkpt>
      <trkpt lat="46.12629" lon="7.31804">
        <ele>1810.5</ele>
        <time>2018-12-31T08:01:48Z</time>
      </trkpt>
      <trkpt lat="46.12613" lon="7.31801">
        <ele>1809.8</ele>
        <time>2018-12-31T08:02:03Z</time>
      </trkpt>
      <trkpt lat="46.12596" lon="7.31802">
        <ele>1810.3</ele>
        <time>2018-12-31T08:02:18Z</time>
      </trkpt>
      <trkpt lat="46.12577" lon="7.31805">
        <ele>1813.3</ele>
        <time>2018-12-31T08:02:38Z</time>
      </trkpt>
      <trkpt lat="46.1256" lon="7.31809">
        <ele>1820.1</ele>
        <time>2018-12-31T08:02:58Z</time>
      </trkpt>
      <trkpt lat="46.12545" lon="7.31806">
        <ele>1821.8</ele>
        <time>2018-12-31T08:03:13Z</time>
      </trkpt>
      <trkpt lat="46.12531" lon="7.31797">
        <ele>1821.4</ele>
        <time>2018-12-31T08:03:28Z</time>
      </trkpt>
      <trkpt lat="46.12517" lon="7.31797">
        <ele>1821.8</ele>
        <time>2018-12-31T08:03:43Z</time>
      </trkpt>
      <trkpt lat="46.12504" lon="7.31796">
        <ele>1821.8</ele>
        <time>2018-12-31T08:03:58Z</time>
      </trkpt>
      <trkpt lat="46.1249" lon="7.31791">
        <ele>1825.3</ele>
        <time>2018-12-31T08:04:13Z</time>
      </trkpt>
      <trkpt lat="46.12475" lon="7.31782">
        <ele>1831.2</ele>
        <time>2018-12-31T08:04:28Z</time>
      </trkpt>
      <trkpt lat="46.12461" lon="7.31776">
        <ele>1832.3</ele>
        <time>2018-12-31T08:04:43Z</time>
      </trkpt>
      <trkpt lat="46.12447" lon="7.31773">
        <ele>1832.2</ele>
        <time>2018-12-31T08:04:58Z</time>
      </trkpt>
      <trkpt lat="46.1243" lon="7.31766">
        <ele>1835.2</ele>
        <time>2018-12-31T08:05:18Z</time>
      </trkpt>
      <trkpt lat="46.12414" lon="7.31761">
        <ele>1837.4</ele>
        <time>2018-12-31T08:05:33Z</time>
      </trkpt>
      <trkpt lat="46.12398" lon="7.31754">
        <ele>1839.9</ele>
        <time>2018-12-31T08:05:48Z</time>
      </trkpt>
      <trkpt lat="46.12382" lon="7.31754">
        <ele>1843.1</ele>
        <time>2018-12-31T08:06:08Z</time>
      </trkpt>
      <trkpt lat="46.12364" lon="7.3175">
        <ele>1843.1</ele>
        <time>2018-12-31T08:06:23Z</time>
      </trkpt>
      <trkpt lat="46.1235" lon="7.31748">
        <ele>1843.1</ele>
        <time>2018-12-31T08:06:43Z</time>
      </trkpt>
      <trkpt lat="46.12352" lon="7.31771">
        <ele>1845.6</ele>
        <time>2018-12-31T08:10:03Z</time>
      </trkpt>
      <trkpt lat="46.12365" lon="7.31786">
        <ele>1845.6</ele>
        <time>2018-12-31T08:10:18Z</time>
      </trkpt>
      <trkpt lat="46.12379" lon="7.31805">
        <ele>1852.4</ele>
        <time>2018-12-31T08:10:33Z</time>
      </trkpt>
      <trkpt lat="46.12392" lon="7.31816">
        <ele>1853.1</ele>
        <time>2018-12-31T08:10:48Z</time>
      </trkpt>
      <trkpt lat="46.12376" lon="7.31811">
        <ele>1854.7</ele>
        <time>2018-12-31T08:11:08Z</time>
      </trkpt>
      <trkpt lat="46.1236" lon="7.31804">
        <ele>1853.7</ele>
        <time>2018-12-31T08:11:28Z</time>
      </trkpt>
      <trkpt lat="46.12346" lon="7.31798">
        <ele>1855.8</ele>
        <time>2018-12-31T08:11:43Z</time>
      </trkpt>
      <trkpt lat="46.12333" lon="7.31797">
        <ele>1861</ele>
        <time>2018-12-31T08:11:58Z</time>
      </trkpt>
      <trkpt lat="46.12316" lon="7.31793">
        <ele>1863.5</ele>
        <time>2018-12-31T08:12:18Z</time>
      </trkpt>
      <trkpt lat="46.12298" lon="7.3179">
        <ele>1864.4</ele>
        <time>2018-12-31T08:12:38Z</time>
      </trkpt>
      <trkpt lat="46.1228" lon="7.31788">
        <ele>1867.7</ele>
        <time>2018-12-31T08:12:53Z</time>
      </trkpt>
      <trkpt lat="46.12266" lon="7.31785">
        <ele>1868.7</ele>
        <time>2018-12-31T08:13:08Z</time>
      </trkpt>
      <trkpt lat="46.12253" lon="7.31779">
        <ele>1866.5</ele>
        <time>2018-12-31T08:13:23Z</time>
      </trkpt>
      <trkpt lat="46.12235" lon="7.31775">
        <ele>1869.4</ele>
        <time>2018-12-31T08:13:43Z</time>
      </trkpt>
      <trkpt lat="46.12219" lon="7.31769">
        <ele>1871.6</ele>
        <time>2018-12-31T08:14:03Z</time>
      </trkpt>
      <trkpt lat="46.12201" lon="7.31768">
        <ele>1871.5</ele>
        <time>2018-12-31T08:14:23Z</time>
      </trkpt>
      <trkpt lat="46.12184" lon="7.31765">
        <ele>1870.2</ele>
        <time>2018-12-31T08:14:38Z</time>
      </trkpt>
      <trkpt lat="46.12168" lon="7.31774">
        <ele>1873.3</ele>
        <time>2018-12-31T08:14:53Z</time>
      </trkpt>
      <trkpt lat="46.12157" lon="7.31785">
        <ele>1877.6</ele>
        <time>2018-12-31T08:15:08Z</time>
      </trkpt>
      <trkpt lat="46.12146" lon="7.31798">
        <ele>1882.7</ele>
        <time>2018-12-31T08:15:23Z</time>
      </trkpt>
      <trkpt lat="46.1213" lon="7.31807">
        <ele>1882.9</ele>
        <time>2018-12-31T08:15:43Z</time>
      </trkpt>
      <trkpt lat="46.12116" lon="7.31819">
        <ele>1881.9</ele>
        <time>2018-12-31T08:15:58Z</time>
      </trkpt>
      <trkpt lat="46.12104" lon="7.31832">
        <ele>1884.7</ele>
        <time>2018-12-31T08:16:13Z</time>
      </trkpt>
      <trkpt lat="46.12091" lon="7.31845">
        <ele>1890.2</ele>
        <time>2018-12-31T08:16:33Z</time>
      </trkpt>
      <trkpt lat="46.12075" lon="7.31845">
        <ele>1890.2</ele>
        <time>2018-12-31T08:16:48Z</time>
      </trkpt>
      <trkpt lat="46.12063" lon="7.31855">
        <ele>1893.7</ele>
        <time>2018-12-31T08:17:03Z</time>
      </trkpt>
      <trkpt lat="46.12049" lon="7.31854">
        <ele>1894</ele>
        <time>2018-12-31T08:17:18Z</time>
      </trkpt>
      <trkpt lat="46.12042" lon="7.31874">
        <ele>1896.4</ele>
        <time>2018-12-31T08:17:33Z</time>
      </trkpt>
      <trkpt lat="46.1203" lon="7.31886">
        <ele>1896.4</ele>
        <time>2018-12-31T08:17:48Z</time>
      </trkpt>
      <trkpt lat="46.12016" lon="7.31894">
        <ele>1898.3</ele>
        <time>2018-12-31T08:18:03Z</time>
      </trkpt>
      <trkpt lat="46.12001" lon="7.31903">
        <ele>1901.7</ele>
        <time>2018-12-31T08:18:23Z</time>
      </trkpt>
      <trkpt lat="46.11986" lon="7.31909">
        <ele>1904.1</ele>
        <time>2018-12-31T08:18:38Z</time>
      </trkpt>
      <trkpt lat="46.11972" lon="7.31916">
        <ele>1906.8</ele>
        <time>2018-12-31T08:18:58Z</time>
      </trkpt>
      <trkpt lat="46.11958" lon="7.31917">
        <ele>1906.7</ele>
        <time>2018-12-31T08:19:13Z</time>
      </trkpt>
      <trkpt lat="46.1194" lon="7.3192">
        <ele>1908.1</ele>
        <time>2018-12-31T08:19:33Z</time>
      </trkpt>
      <trkpt lat="46.11928" lon="7.31931">
        <ele>1912.4</ele>
        <time>2018-12-31T08:19:48Z</time>
      </trkpt>
      <trkpt lat="46.11912" lon="7.31934">
        <ele>1913.4</ele>
        <time>2018-12-31T08:20:08Z</time>
      </trkpt>
      <trkpt lat="46.11898" lon="7.31932">
        <ele>1913</ele>
        <time>2018-12-31T08:20:23Z</time>
      </trkpt>
      <trkpt lat="46.11882" lon="7.31933">
        <ele>1912.8</ele>
        <time>2018-12-31T08:20:38Z</time>
      </trkpt>
      <trkpt lat="46.1187" lon="7.31941">
        <ele>1916.3</ele>
        <time>2018-12-31T08:20:53Z</time>
      </trkpt>
      <trkpt lat="46.11853" lon="7.31949">
        <ele>1923.5</ele>
        <time>2018-12-31T08:21:13Z</time>
      </trkpt>
      <trkpt lat="46.11837" lon="7.31952">
        <ele>1930</ele>
        <time>2018-12-31T08:21:33Z</time>
      </trkpt>
      <trkpt lat="46.11818" lon="7.31956">
        <ele>1932.6</ele>
        <time>2018-12-31T08:21:53Z</time>
      </trkpt>
      <trkpt lat="46.11799" lon="7.3196">
        <ele>1934.2</ele>
        <time>2018-12-31T08:22:13Z</time>
      </trkpt>
      <trkpt lat="46.11785" lon="7.31964">
        <ele>1935.6</ele>
        <time>2018-12-31T08:22:33Z</time>
      </trkpt>
      <trkpt lat="46.1177" lon="7.31972">
        <ele>1937.7</ele>
        <time>2018-12-31T08:22:48Z</time>
      </trkpt>
      <trkpt lat="46.11753" lon="7.31981">
        <ele>1942.9</ele>
        <time>2018-12-31T08:24:48Z</time>
      </trkpt>
      <trkpt lat="46.1174" lon="7.31972">
        <ele>1938.8</ele>
        <time>2018-12-31T08:25:03Z</time>
      </trkpt>
      <trkpt lat="46.11733" lon="7.31991">
        <ele>1945.7</ele>
        <time>2018-12-31T08:25:23Z</time>
      </trkpt>
      <trkpt lat="46.11747" lon="7.32002">
        <ele>1950.6</ele>
        <time>2018-12-31T08:25:38Z</time>
      </trkpt>
      <trkpt lat="46.11762" lon="7.3201">
        <ele>1952.8</ele>
        <time>2018-12-31T08:25:53Z</time>
      </trkpt>
      <trkpt lat="46.11779" lon="7.32021">
        <ele>1957.5</ele>
        <time>2018-12-31T08:26:13Z</time>
      </trkpt>
      <trkpt lat="46.11796" lon="7.32019">
        <ele>1957.1</ele>
        <time>2018-12-31T08:26:28Z</time>
      </trkpt>
      <trkpt lat="46.11815" lon="7.32019">
        <ele>1956.8</ele>
        <time>2018-12-31T08:26:43Z</time>
      </trkpt>
      <trkpt lat="46.1183" lon="7.32016">
        <ele>1955.8</ele>
        <time>2018-12-31T08:26:58Z</time>
      </trkpt>
      <trkpt lat="46.11846" lon="7.32013">
        <ele>1955.1</ele>
        <time>2018-12-31T08:27:08Z</time>
      </trkpt>
      <trkpt lat="46.11863" lon="7.32016">
        <ele>1956</ele>
        <time>2018-12-31T08:27:28Z</time>
      </trkpt>
      <trkpt lat="46.11876" lon="7.32026">
        <ele>1959.5</ele>
        <time>2018-12-31T08:27:43Z</time>
      </trkpt>
      <trkpt lat="46.11888" lon="7.32034">
        <ele>1964.8</ele>
        <time>2018-12-31T08:27:58Z</time>
      </trkpt>
      <trkpt lat="46.11906" lon="7.32034">
        <ele>1969.7</ele>
        <time>2018-12-31T08:28:13Z</time>
      </trkpt>
      <trkpt lat="46.11921" lon="7.32036">
        <ele>1974.3</ele>
        <time>2018-12-31T08:28:33Z</time>
      </trkpt>
      <trkpt lat="46.11938" lon="7.32036">
        <ele>1973.5</ele>
        <time>2018-12-31T08:28:48Z</time>
      </trkpt>
      <trkpt lat="46.11951" lon="7.32031">
        <ele>1972.6</ele>
        <time>2018-12-31T08:29:03Z</time>
      </trkpt>
      <trkpt lat="46.11966" lon="7.32037">
        <ele>1974.8</ele>
        <time>2018-12-31T08:29:18Z</time>
      </trkpt>
      <trkpt lat="46.11978" lon="7.32047">
        <ele>1977.7</ele>
        <time>2018-12-31T08:29:33Z</time>
      </trkpt>
      <trkpt lat="46.11995" lon="7.32043">
        <ele>1976.9</ele>
        <time>2018-12-31T08:29:48Z</time>
      </trkpt>
      <trkpt lat="46.12009" lon="7.32044">
        <ele>1975.8</ele>
        <time>2018-12-31T08:30:03Z</time>
      </trkpt>
      <trkpt lat="46.12029" lon="7.32046">
        <ele>1973.4</ele>
        <time>2018-12-31T08:30:18Z</time>
      </trkpt>
      <trkpt lat="46.12016" lon="7.3205">
        <ele>1978.5</ele>
        <time>2018-12-31T08:30:38Z</time>
      </trkpt>
      <trkpt lat="46.11999" lon="7.32046">
        <ele>1978.3</ele>
        <time>2018-12-31T08:31:03Z</time>
      </trkpt>
      <trkpt lat="46.11983" lon="7.32047">
        <ele>1978.5</ele>
        <time>2018-12-31T08:31:18Z</time>
      </trkpt>
      <trkpt lat="46.11965" lon="7.3205">
        <ele>1979.3</ele>
        <time>2018-12-31T08:31:38Z</time>
      </trkpt>
      <trkpt lat="46.11949" lon="7.32052">
        <ele>1980.3</ele>
        <time>2018-12-31T08:31:53Z</time>
      </trkpt>
      <trkpt lat="46.11931" lon="7.32058">
        <ele>1982.5</ele>
        <time>2018-12-31T08:32:13Z</time>
      </trkpt>
      <trkpt lat="46.11918" lon="7.32067">
        <ele>1985.5</ele>
        <time>2018-12-31T08:32:28Z</time>
      </trkpt>
      <trkpt lat="46.11901" lon="7.32069">
        <ele>1986.6</ele>
        <time>2018-12-31T08:32:48Z</time>
      </trkpt>
      <trkpt lat="46.11887" lon="7.32075">
        <ele>1989.1</ele>
        <time>2018-12-31T08:33:03Z</time>
      </trkpt>
      <trkpt lat="46.11871" lon="7.3208">
        <ele>1990.8</ele>
        <time>2018-12-31T08:33:18Z</time>
      </trkpt>
      <trkpt lat="46.11856" lon="7.32085">
        <ele>1993.3</ele>
        <time>2018-12-31T08:33:33Z</time>
      </trkpt>
      <trkpt lat="46.1184" lon="7.32086">
        <ele>1995.5</ele>
        <time>2018-12-31T08:33:48Z</time>
      </trkpt>
      <trkpt lat="46.11825" lon="7.32087">
        <ele>1997.7</ele>
        <time>2018-12-31T08:34:08Z</time>
      </trkpt>
      <trkpt lat="46.11809" lon="7.32078">
        <ele>1997.2</ele>
        <time>2018-12-31T08:34:28Z</time>
      </trkpt>
      <trkpt lat="46.11796" lon="7.32067">
        <ele>1991.2</ele>
        <time>2018-12-31T08:34:43Z</time>
      </trkpt>
      <trkpt lat="46.11779" lon="7.32069">
        <ele>1991.1</ele>
        <time>2018-12-31T08:34:58Z</time>
      </trkpt>
      <trkpt lat="46.11765" lon="7.32086">
        <ele>2003.6</ele>
        <time>2018-12-31T08:35:13Z</time>
      </trkpt>
      <trkpt lat="46.11752" lon="7.32099">
        <ele>2008.8</ele>
        <time>2018-12-31T08:35:28Z</time>
      </trkpt>
      <trkpt lat="46.1174" lon="7.32108">
        <ele>2008.7</ele>
        <time>2018-12-31T08:35:43Z</time>
      </trkpt>
      <trkpt lat="46.11726" lon="7.32117">
        <ele>2009.2</ele>
        <time>2018-12-31T08:35:58Z</time>
      </trkpt>
      <trkpt lat="46.11712" lon="7.32129">
        <ele>2014</ele>
        <time>2018-12-31T08:36:18Z</time>
      </trkpt>
      <trkpt lat="46.11695" lon="7.32133">
        <ele>2011.4</ele>
        <time>2018-12-31T08:36:38Z</time>
      </trkpt>
      <trkpt lat="46.11682" lon="7.32146">
        <ele>2015.8</ele>
        <time>2018-12-31T08:36:58Z</time>
      </trkpt>
      <trkpt lat="46.11669" lon="7.32157">
        <ele>2019.9</ele>
        <time>2018-12-31T08:37:13Z</time>
      </trkpt>
      <trkpt lat="46.11656" lon="7.32165">
        <ele>2020</ele>
        <time>2018-12-31T08:37:28Z</time>
      </trkpt>
      <trkpt lat="46.11645" lon="7.32177">
        <ele>2020.2</ele>
        <time>2018-12-31T08:37:43Z</time>
      </trkpt>
      <trkpt lat="46.11632" lon="7.32185">
        <ele>2020.5</ele>
        <time>2018-12-31T08:37:58Z</time>
      </trkpt>
      <trkpt lat="46.1162" lon="7.32194">
        <ele>2023.7</ele>
        <time>2018-12-31T08:38:13Z</time>
      </trkpt>
      <trkpt lat="46.11602" lon="7.32193">
        <ele>2023.7</ele>
        <time>2018-12-31T08:38:33Z</time>
      </trkpt>
      <trkpt lat="46.11587" lon="7.32196">
        <ele>2025.2</ele>
        <time>2018-12-31T08:38:48Z</time>
      </trkpt>
      <trkpt lat="46.11571" lon="7.32203">
        <ele>2027.5</ele>
        <time>2018-12-31T08:39:08Z</time>
      </trkpt>
      <trkpt lat="46.11568" lon="7.32222">
        <ele>2034.3</ele>
        <time>2018-12-31T08:39:18Z</time>
      </trkpt>
      <trkpt lat="46.11583" lon="7.32233">
        <ele>2039.1</ele>
        <time>2018-12-31T08:39:33Z</time>
      </trkpt>
      <trkpt lat="46.11598" lon="7.32229">
        <ele>2037.3</ele>
        <time>2018-12-31T08:39:48Z</time>
      </trkpt>
      <trkpt lat="46.11614" lon="7.32226">
        <ele>2036.7</ele>
        <time>2018-12-31T08:40:03Z</time>
      </trkpt>
      <trkpt lat="46.11626" lon="7.32236">
        <ele>2042.2</ele>
        <time>2018-12-31T08:40:18Z</time>
      </trkpt>
      <trkpt lat="46.11642" lon="7.32239">
        <ele>2047.1</ele>
        <time>2018-12-31T08:40:33Z</time>
      </trkpt>
      <trkpt lat="46.11657" lon="7.32233">
        <ele>2047</ele>
        <time>2018-12-31T08:40:53Z</time>
      </trkpt>
      <trkpt lat="46.11671" lon="7.32231">
        <ele>2049.8</ele>
        <time>2018-12-31T08:41:08Z</time>
      </trkpt>
      <trkpt lat="46.11687" lon="7.32228">
        <ele>2049.4</ele>
        <time>2018-12-31T08:41:23Z</time>
      </trkpt>
      <trkpt lat="46.11704" lon="7.32218">
        <ele>2047.4</ele>
        <time>2018-12-31T08:41:43Z</time>
      </trkpt>
      <trkpt lat="46.11721" lon="7.32212">
        <ele>2051.4</ele>
        <time>2018-12-31T08:41:58Z</time>
      </trkpt>
      <trkpt lat="46.11735" lon="7.32209">
        <ele>2053.9</ele>
        <time>2018-12-31T08:42:13Z</time>
      </trkpt>
      <trkpt lat="46.1175" lon="7.32207">
        <ele>2055.1</ele>
        <time>2018-12-31T08:42:33Z</time>
      </trkpt>
      <trkpt lat="46.11763" lon="7.32198">
        <ele>2052.9</ele>
        <time>2018-12-31T08:42:48Z</time>
      </trkpt>
      <trkpt lat="46.11781" lon="7.32196">
        <ele>2056.3</ele>
        <time>2018-12-31T08:43:03Z</time>
      </trkpt>
      <trkpt lat="46.11792" lon="7.32209">
        <ele>2061.2</ele>
        <time>2018-12-31T08:43:23Z</time>
      </trkpt>
      <trkpt lat="46.11806" lon="7.32207">
        <ele>2060.9</ele>
        <time>2018-12-31T08:43:33Z</time>
      </trkpt>
      <trkpt lat="46.11792" lon="7.32205">
        <ele>2060.7</ele>
        <time>2018-12-31T08:44:13Z</time>
      </trkpt>
      <trkpt lat="46.11775" lon="7.32202">
        <ele>2058.6</ele>
        <time>2018-12-31T08:44:28Z</time>
      </trkpt>
      <trkpt lat="46.11758" lon="7.32212">
        <ele>2060</ele>
        <time>2018-12-31T08:44:43Z</time>
      </trkpt>
      <trkpt lat="46.11744" lon="7.32224">
        <ele>2064.8</ele>
        <time>2018-12-31T08:44:58Z</time>
      </trkpt>
      <trkpt lat="46.1173" lon="7.32231">
        <ele>2063.8</ele>
        <time>2018-12-31T08:45:13Z</time>
      </trkpt>
      <trkpt lat="46.11716" lon="7.32242">
        <ele>2062.9</ele>
        <time>2018-12-31T08:45:28Z</time>
      </trkpt>
      <trkpt lat="46.11706" lon="7.32256">
        <ele>2069.4</ele>
        <time>2018-12-31T08:45:43Z</time>
      </trkpt>
      <trkpt lat="46.11689" lon="7.32266">
        <ele>2071.4</ele>
        <time>2018-12-31T08:46:03Z</time>
      </trkpt>
      <trkpt lat="46.11674" lon="7.32277">
        <ele>2069.5</ele>
        <time>2018-12-31T08:46:18Z</time>
      </trkpt>
      <trkpt lat="46.11658" lon="7.32284">
        <ele>2071</ele>
        <time>2018-12-31T08:46:33Z</time>
      </trkpt>
      <trkpt lat="46.11646" lon="7.32296">
        <ele>2076.3</ele>
        <time>2018-12-31T08:46:48Z</time>
      </trkpt>
      <trkpt lat="46.11632" lon="7.32301">
        <ele>2075.4</ele>
        <time>2018-12-31T08:47:03Z</time>
      </trkpt>
      <trkpt lat="46.11617" lon="7.32305">
        <ele>2077.5</ele>
        <time>2018-12-31T08:47:18Z</time>
      </trkpt>
      <trkpt lat="46.11602" lon="7.32312">
        <ele>2081.9</ele>
        <time>2018-12-31T08:47:33Z</time>
      </trkpt>
      <trkpt lat="46.11587" lon="7.32323">
        <ele>2085</ele>
        <time>2018-12-31T08:47:58Z</time>
      </trkpt>
      <trkpt lat="46.11571" lon="7.3233">
        <ele>2086.6</ele>
        <time>2018-12-31T08:48:13Z</time>
      </trkpt>
      <trkpt lat="46.11557" lon="7.3233">
        <ele>2087.1</ele>
        <time>2018-12-31T08:48:28Z</time>
      </trkpt>
      <trkpt lat="46.1154" lon="7.32339">
        <ele>2090</ele>
        <time>2018-12-31T08:48:43Z</time>
      </trkpt>
      <trkpt lat="46.11525" lon="7.32343">
        <ele>2092.3</ele>
        <time>2018-12-31T08:48:58Z</time>
      </trkpt>
      <trkpt lat="46.11511" lon="7.32343">
        <ele>2096.3</ele>
        <time>2018-12-31T08:49:18Z</time>
      </trkpt>
      <trkpt lat="46.11495" lon="7.32334">
        <ele>2100.6</ele>
        <time>2018-12-31T08:49:38Z</time>
      </trkpt>
      <trkpt lat="46.1148" lon="7.32335">
        <ele>2106.8</ele>
        <time>2018-12-31T08:49:58Z</time>
      </trkpt>
      <trkpt lat="46.11464" lon="7.32334">
        <ele>2112.3</ele>
        <time>2018-12-31T08:50:18Z</time>
      </trkpt>
      <trkpt lat="46.11449" lon="7.32331">
        <ele>2116.6</ele>
        <time>2018-12-31T08:50:38Z</time>
      </trkpt>
      <trkpt lat="46.11436" lon="7.32327">
        <ele>2119.1</ele>
        <time>2018-12-31T08:50:53Z</time>
      </trkpt>
      <trkpt lat="46.11424" lon="7.32313">
        <ele>2117.5</ele>
        <time>2018-12-31T08:51:08Z</time>
      </trkpt>
      <trkpt lat="46.11408" lon="7.32299">
        <ele>2121.1</ele>
        <time>2018-12-31T08:51:28Z</time>
      </trkpt>
      <trkpt lat="46.11395" lon="7.32288">
        <ele>2121.6</ele>
        <time>2018-12-31T08:51:48Z</time>
      </trkpt>
      <trkpt lat="46.11383" lon="7.32273">
        <ele>2120.9</ele>
        <time>2018-12-31T08:52:03Z</time>
      </trkpt>
      <trkpt lat="46.11371" lon="7.32261">
        <ele>2120.4</ele>
        <time>2018-12-31T08:52:23Z</time>
      </trkpt>
      <trkpt lat="46.11368" lon="7.32237">
        <ele>2117.8</ele>
        <time>2018-12-31T08:52:38Z</time>
      </trkpt>
      <trkpt lat="46.11363" lon="7.32215">
        <ele>2116.9</ele>
        <time>2018-12-31T08:52:53Z</time>
      </trkpt>
      <trkpt lat="46.11357" lon="7.32192">
        <ele>2110.9</ele>
        <time>2018-12-31T08:53:08Z</time>
      </trkpt>
      <trkpt lat="46.11356" lon="7.32165">
        <ele>2111.6</ele>
        <time>2018-12-31T08:53:23Z</time>
      </trkpt>
      <trkpt lat="46.1135" lon="7.32144">
        <ele>2113.6</ele>
        <time>2018-12-31T08:53:38Z</time>
      </trkpt>
      <trkpt lat="46.11344" lon="7.32124">
        <ele>2115.3</ele>
        <time>2018-12-31T08:53:53Z</time>
      </trkpt>
      <trkpt lat="46.11331" lon="7.32112">
        <ele>2120.2</ele>
        <time>2018-12-31T08:54:08Z</time>
      </trkpt>
      <trkpt lat="46.11317" lon="7.32115">
        <ele>2120.3</ele>
        <time>2018-12-31T08:54:23Z</time>
      </trkpt>
      <trkpt lat="46.11303" lon="7.32126">
        <ele>2120.3</ele>
        <time>2018-12-31T08:54:38Z</time>
      </trkpt>
      <trkpt lat="46.1129" lon="7.32138">
        <ele>2120.3</ele>
        <time>2018-12-31T08:54:53Z</time>
      </trkpt>
      <trkpt lat="46.11281" lon="7.32157">
        <ele>2120.3</ele>
        <time>2018-12-31T08:55:13Z</time>
      </trkpt>
      <trkpt lat="46.11282" lon="7.32185">
        <ele>2127</ele>
        <time>2018-12-31T08:55:28Z</time>
      </trkpt>
      <trkpt lat="46.11295" lon="7.32203">
        <ele>2130.9</ele>
        <time>2018-12-31T08:55:58Z</time>
      </trkpt>
      <trkpt lat="46.11308" lon="7.32214">
        <ele>2130.2</ele>
        <time>2018-12-31T08:56:13Z</time>
      </trkpt>
      <trkpt lat="46.11313" lon="7.32241">
        <ele>2133.5</ele>
        <time>2018-12-31T08:56:33Z</time>
      </trkpt>
      <trkpt lat="46.11322" lon="7.32257">
        <ele>2136.4</ele>
        <time>2018-12-31T08:56:53Z</time>
      </trkpt>
      <trkpt lat="46.11327" lon="7.32278">
        <ele>2141</ele>
        <time>2018-12-31T08:57:08Z</time>
      </trkpt>
      <trkpt lat="46.11338" lon="7.32292">
        <ele>2145.2</ele>
        <time>2018-12-31T08:57:23Z</time>
      </trkpt>
      <trkpt lat="46.11351" lon="7.32303">
        <ele>2144.8</ele>
        <time>2018-12-31T08:57:38Z</time>
      </trkpt>
      <trkpt lat="46.11364" lon="7.32313">
        <ele>2143.4</ele>
        <time>2018-12-31T08:57:48Z</time>
      </trkpt>
      <trkpt lat="46.11373" lon="7.3233">
        <ele>2146</ele>
        <time>2018-12-31T08:58:03Z</time>
      </trkpt>
      <trkpt lat="46.11385" lon="7.32347">
        <ele>2153.1</ele>
        <time>2018-12-31T08:58:28Z</time>
      </trkpt>
      <trkpt lat="46.11395" lon="7.32362">
        <ele>2159</ele>
        <time>2018-12-31T08:58:48Z</time>
      </trkpt>
      <trkpt lat="46.1141" lon="7.3237">
        <ele>2153.7</ele>
        <time>2018-12-31T08:59:03Z</time>
      </trkpt>
      <trkpt lat="46.11421" lon="7.32385">
        <ele>2157.5</ele>
        <time>2018-12-31T08:59:18Z</time>
      </trkpt>
      <trkpt lat="46.11435" lon="7.32395">
        <ele>2158.4</ele>
        <time>2018-12-31T08:59:33Z</time>
      </trkpt>
      <trkpt lat="46.11446" lon="7.32406">
        <ele>2157.3</ele>
        <time>2018-12-31T08:59:48Z</time>
      </trkpt>
      <trkpt lat="46.11453" lon="7.32423">
        <ele>2153.4</ele>
        <time>2018-12-31T09:00:13Z</time>
      </trkpt>
      <trkpt lat="46.11521" lon="7.32489">
        <ele>2148.4</ele>
        <time>2018-12-31T09:01:22Z</time>
      </trkpt>
      <trkpt lat="46.11505" lon="7.32476">
        <ele>2144.3</ele>
        <time>2018-12-31T09:01:27Z</time>
      </trkpt>
      <trkpt lat="46.11491" lon="7.32489">
        <ele>2154.2</ele>
        <time>2018-12-31T09:01:47Z</time>
      </trkpt>
      <trkpt lat="46.11493" lon="7.32514">
        <ele>2161.4</ele>
        <time>2018-12-31T09:02:07Z</time>
      </trkpt>
      <trkpt lat="46.11507" lon="7.32522">
        <ele>2163.2</ele>
        <time>2018-12-31T09:02:32Z</time>
      </trkpt>
      <trkpt lat="46.11522" lon="7.32511">
        <ele>2165</ele>
        <time>2018-12-31T09:02:47Z</time>
      </trkpt>
      <trkpt lat="46.11534" lon="7.325">
        <ele>2164.8</ele>
        <time>2018-12-31T09:03:02Z</time>
      </trkpt>
      <trkpt lat="46.11537" lon="7.32519">
        <ele>2176.1</ele>
        <time>2018-12-31T09:03:32Z</time>
      </trkpt>
      <trkpt lat="46.11525" lon="7.32532">
        <ele>2164.9</ele>
        <time>2018-12-31T09:03:47Z</time>
      </trkpt>
      <trkpt lat="46.11505" lon="7.32536">
        <ele>2162.8</ele>
        <time>2018-12-31T09:04:05Z</time>
      </trkpt>
      <trkpt lat="46.1149" lon="7.32535">
        <ele>2169.5</ele>
        <time>2018-12-31T09:04:40Z</time>
      </trkpt>
      <trkpt lat="46.11476" lon="7.3252">
        <ele>2171.5</ele>
        <time>2018-12-31T09:05:00Z</time>
      </trkpt>
      <trkpt lat="46.1146" lon="7.32509">
        <ele>2177.7</ele>
        <time>2018-12-31T09:05:20Z</time>
      </trkpt>
      <trkpt lat="46.11453" lon="7.32491">
        <ele>2180.1</ele>
        <time>2018-12-31T09:05:35Z</time>
      </trkpt>
      <trkpt lat="46.11449" lon="7.32472">
        <ele>2180.9</ele>
        <time>2018-12-31T09:05:50Z</time>
      </trkpt>
      <trkpt lat="46.11439" lon="7.32449">
        <ele>2177.9</ele>
        <time>2018-12-31T09:06:10Z</time>
      </trkpt>
      <trkpt lat="46.11424" lon="7.32438">
        <ele>2184.7</ele>
        <time>2018-12-31T09:06:25Z</time>
      </trkpt>
      <trkpt lat="46.11408" lon="7.3243">
        <ele>2186.7</ele>
        <time>2018-12-31T09:06:40Z</time>
      </trkpt>
      <trkpt lat="46.11393" lon="7.32425">
        <ele>2189.3</ele>
        <time>2018-12-31T09:06:55Z</time>
      </trkpt>
      <trkpt lat="46.1138" lon="7.32413">
        <ele>2186.5</ele>
        <time>2018-12-31T09:07:10Z</time>
      </trkpt>
      <trkpt lat="46.11368" lon="7.32404">
        <ele>2187.4</ele>
        <time>2018-12-31T09:07:30Z</time>
      </trkpt>
      <trkpt lat="46.11349" lon="7.32396">
        <ele>2189.8</ele>
        <time>2018-12-31T09:07:45Z</time>
      </trkpt>
      <trkpt lat="46.11335" lon="7.32398">
        <ele>2194.2</ele>
        <time>2018-12-31T09:08:00Z</time>
      </trkpt>
      <trkpt lat="46.11323" lon="7.32389">
        <ele>2190.7</ele>
        <time>2018-12-31T09:17:35Z</time>
      </trkpt>
      <trkpt lat="46.09336" lon="7.34491">
        <ele>2462.9</ele>
        <time>2018-12-31T10:23:53Z</time>
      </trkpt>
      <trkpt lat="46.09346" lon="7.34509">
        <ele>2480.6</ele>
        <time>2018-12-31T10:24:28Z</time>
      </trkpt>
      <trkpt lat="46.09333" lon="7.34517">
        <ele>2483.3</ele>
        <time>2018-12-31T10:28:38Z</time>
      </trkpt>
      <trkpt lat="46.09319" lon="7.34521">
        <ele>2486</ele>
        <time>2018-12-31T10:28:58Z</time>
      </trkpt>
      <trkpt lat="46.09307" lon="7.34531">
        <ele>2487.8</ele>
        <time>2018-12-31T10:29:13Z</time>
      </trkpt>
      <trkpt lat="46.09293" lon="7.34541">
        <ele>2491.3</ele>
        <time>2018-12-31T10:29:33Z</time>
      </trkpt>
      <trkpt lat="46.0928" lon="7.34555">
        <ele>2495.6</ele>
        <time>2018-12-31T10:29:53Z</time>
      </trkpt>
      <trkpt lat="46.09267" lon="7.3457">
        <ele>2496.2</ele>
        <time>2018-12-31T10:30:13Z</time>
      </trkpt>
      <trkpt lat="46.09256" lon="7.34581">
        <ele>2496.2</ele>
        <time>2018-12-31T10:30:33Z</time>
      </trkpt>
      <trkpt lat="46.09241" lon="7.34588">
        <ele>2499.8</ele>
        <time>2018-12-31T10:30:53Z</time>
      </trkpt>
      <trkpt lat="46.09227" lon="7.34587">
        <ele>2503.6</ele>
        <time>2018-12-31T10:31:13Z</time>
      </trkpt>
      <trkpt lat="46.09213" lon="7.34588">
        <ele>2505.8</ele>
        <time>2018-12-31T10:31:28Z</time>
      </trkpt>
      <trkpt lat="46.09198" lon="7.34593">
        <ele>2507.9</ele>
        <time>2018-12-31T10:31:48Z</time>
      </trkpt>
      <trkpt lat="46.09183" lon="7.34592">
        <ele>2508.1</ele>
        <time>2018-12-31T10:32:13Z</time>
      </trkpt>
      <trkpt lat="46.09168" lon="7.34595">
        <ele>2508.9</ele>
        <time>2018-12-31T10:32:33Z</time>
      </trkpt>
      <trkpt lat="46.09153" lon="7.34596">
        <ele>2513.5</ele>
        <time>2018-12-31T10:32:53Z</time>
      </trkpt>
      <trkpt lat="46.09139" lon="7.34596">
        <ele>2518.2</ele>
        <time>2018-12-31T10:33:18Z</time>
      </trkpt>
      <trkpt lat="46.09123" lon="7.34596">
        <ele>2523.3</ele>
        <time>2018-12-31T10:33:38Z</time>
      </trkpt>
      <trkpt lat="46.09107" lon="7.34598">
        <ele>2527.8</ele>
        <time>2018-12-31T10:34:03Z</time>
      </trkpt>
      <trkpt lat="46.09093" lon="7.34599">
        <ele>2528.3</ele>
        <time>2018-12-31T10:34:28Z</time>
      </trkpt>
      <trkpt lat="46.0908" lon="7.34608">
        <ele>2531.3</ele>
        <time>2018-12-31T10:35:03Z</time>
      </trkpt>
      <trkpt lat="46.09065" lon="7.34619">
        <ele>2532.5</ele>
        <time>2018-12-31T10:35:23Z</time>
      </trkpt>
      <trkpt lat="46.09054" lon="7.34631">
        <ele>2532.5</ele>
        <time>2018-12-31T10:35:48Z</time>
      </trkpt>
      <trkpt lat="46.09045" lon="7.34648">
        <ele>2535.2</ele>
        <time>2018-12-31T10:36:08Z</time>
      </trkpt>
      <trkpt lat="46.09034" lon="7.34662">
        <ele>2539.6</ele>
        <time>2018-12-31T10:36:28Z</time>
      </trkpt>
      <trkpt lat="46.09023" lon="7.34675">
        <ele>2537.6</ele>
        <time>2018-12-31T10:36:58Z</time>
      </trkpt>
      <trkpt lat="46.0901" lon="7.34673">
        <ele>2550.4</ele>
        <time>2018-12-31T10:37:58Z</time>
      </trkpt>
      <trkpt lat="46.08996" lon="7.34666">
        <ele>2536.2</ele>
        <time>2018-12-31T10:38:28Z</time>
      </trkpt>
      <trkpt lat="46.08982" lon="7.34668">
        <ele>2536.6</ele>
        <time>2018-12-31T10:38:48Z</time>
      </trkpt>
      <trkpt lat="46.08966" lon="7.34673">
        <ele>2572.3</ele>
        <time>2018-12-31T10:39:33Z</time>
      </trkpt>
      <trkpt lat="46.08953" lon="7.34678">
        <ele>2578.2</ele>
        <time>2018-12-31T10:40:03Z</time>
      </trkpt>
      <trkpt lat="46.08951" lon="7.347">
        <ele>2582.7</ele>
        <time>2018-12-31T10:40:53Z</time>
      </trkpt>
      <trkpt lat="46.08938" lon="7.34707">
        <ele>2583.7</ele>
        <time>2018-12-31T10:41:38Z</time>
      </trkpt>
      <trkpt lat="46.08924" lon="7.34704">
        <ele>2585.8</ele>
        <time>2018-12-31T10:42:18Z</time>
      </trkpt>
      <trkpt lat="46.08907" lon="7.34693">
        <ele>2592.4</ele>
        <time>2018-12-31T10:42:53Z</time>
      </trkpt>
      <trkpt lat="46.08892" lon="7.34684">
        <ele>2599.7</ele>
        <time>2018-12-31T10:43:18Z</time>
      </trkpt>
      <trkpt lat="46.08879" lon="7.34671">
        <ele>2600.8</ele>
        <time>2018-12-31T10:43:53Z</time>
      </trkpt>
      <trkpt lat="46.08869" lon="7.34656">
        <ele>2602.3</ele>
        <time>2018-12-31T10:44:23Z</time>
      </trkpt>
      <trkpt lat="46.0886" lon="7.34637">
        <ele>2605</ele>
        <time>2018-12-31T10:44:48Z</time>
      </trkpt>
      <trkpt lat="46.08849" lon="7.34624">
        <ele>2608.8</ele>
        <time>2018-12-31T10:45:23Z</time>
      </trkpt>
      <trkpt lat="46.08834" lon="7.34632">
        <ele>2613.6</ele>
        <time>2018-12-31T10:45:53Z</time>
      </trkpt>
      <trkpt lat="46.0883" lon="7.34654">
        <ele>2619.7</ele>
        <time>2018-12-31T10:46:18Z</time>
      </trkpt>
      <trkpt lat="46.08831" lon="7.34676">
        <ele>2626.6</ele>
        <time>2018-12-31T10:46:58Z</time>
      </trkpt>
      <trkpt lat="46.08821" lon="7.34692">
        <ele>2635.2</ele>
        <time>2018-12-31T10:47:33Z</time>
      </trkpt>
      <trkpt lat="46.0881" lon="7.34704">
        <ele>2640.1</ele>
        <time>2018-12-31T10:48:03Z</time>
      </trkpt>
      <trkpt lat="46.08815" lon="7.34723">
        <ele>2641.3</ele>
        <time>2018-12-31T10:48:33Z</time>
      </trkpt>
      <trkpt lat="46.08819" lon="7.34742">
        <ele>2644.6</ele>
        <time>2018-12-31T10:49:08Z</time>
      </trkpt>
      <trkpt lat="46.08808" lon="7.34753">
        <ele>2649.4</ele>
        <time>2018-12-31T10:50:03Z</time>
      </trkpt>
      <trkpt lat="46.08793" lon="7.34749">
        <ele>2650.3</ele>
        <time>2018-12-31T10:50:38Z</time>
      </trkpt>
      <trkpt lat="46.0878" lon="7.34735">
        <ele>2649.9</ele>
        <time>2018-12-31T10:51:08Z</time>
      </trkpt>
      <trkpt lat="46.08766" lon="7.34722">
        <ele>2650.3</ele>
        <time>2018-12-31T10:51:33Z</time>
      </trkpt>
      <trkpt lat="46.08755" lon="7.34712">
        <ele>2652.6</ele>
        <time>2018-12-31T10:51:48Z</time>
      </trkpt>
      <trkpt lat="46.08744" lon="7.34694">
        <ele>2659.2</ele>
        <time>2018-12-31T10:52:03Z</time>
      </trkpt>
      <trkpt lat="46.08732" lon="7.3468">
        <ele>2659.3</ele>
        <time>2018-12-31T10:52:28Z</time>
      </trkpt>
      <trkpt lat="46.08719" lon="7.34671">
        <ele>2660.2</ele>
        <time>2018-12-31T10:52:48Z</time>
      </trkpt>
      <trkpt lat="46.08705" lon="7.34673">
        <ele>2664.6</ele>
        <time>2018-12-31T10:53:08Z</time>
      </trkpt>
      <trkpt lat="46.08692" lon="7.3468">
        <ele>2669.1</ele>
        <time>2018-12-31T10:53:33Z</time>
      </trkpt>
      <trkpt lat="46.08684" lon="7.34697">
        <ele>2674.7</ele>
        <time>2018-12-31T10:54:03Z</time>
      </trkpt>
      <trkpt lat="46.0867" lon="7.34698">
        <ele>2682.9</ele>
        <time>2018-12-31T10:54:48Z</time>
      </trkpt>
      <trkpt lat="46.08664" lon="7.34719">
        <ele>2680.2</ele>
        <time>2018-12-31T10:55:23Z</time>
      </trkpt>
      <trkpt lat="46.08651" lon="7.34709">
        <ele>2687</ele>
        <time>2018-12-31T10:56:08Z</time>
      </trkpt>
      <trkpt lat="46.08637" lon="7.34699">
        <ele>2688.2</ele>
        <time>2018-12-31T10:56:43Z</time>
      </trkpt>
      <trkpt lat="46.08624" lon="7.34693">
        <ele>2690.9</ele>
        <time>2018-12-31T10:56:58Z</time>
      </trkpt>
      <trkpt lat="46.0861" lon="7.34689">
        <ele>2693.8</ele>
        <time>2018-12-31T10:57:13Z</time>
      </trkpt>
      <trkpt lat="46.08596" lon="7.3469">
        <ele>2698.6</ele>
        <time>2018-12-31T10:57:33Z</time>
      </trkpt>
      <trkpt lat="46.08583" lon="7.34686">
        <ele>2701.8</ele>
        <time>2018-12-31T10:58:03Z</time>
      </trkpt>
      <trkpt lat="46.08569" lon="7.34685">
        <ele>2701.5</ele>
        <time>2018-12-31T10:58:23Z</time>
      </trkpt>
      <trkpt lat="46.08555" lon="7.34681">
        <ele>2699.8</ele>
        <time>2018-12-31T10:58:43Z</time>
      </trkpt>
      <trkpt lat="46.08541" lon="7.34685">
        <ele>2705.3</ele>
        <time>2018-12-31T10:59:13Z</time>
      </trkpt>
      <trkpt lat="46.08528" lon="7.34693">
        <ele>2712.6</ele>
        <time>2018-12-31T10:59:43Z</time>
      </trkpt>
      <trkpt lat="46.08512" lon="7.34691">
        <ele>2712.6</ele>
        <time>2018-12-31T11:00:03Z</time>
      </trkpt>
      <trkpt lat="46.08496" lon="7.34687">
        <ele>2712.5</ele>
        <time>2018-12-31T11:00:28Z</time>
      </trkpt>
      <trkpt lat="46.08482" lon="7.34682">
        <ele>2715.5</ele>
        <time>2018-12-31T11:00:43Z</time>
      </trkpt>
      <trkpt lat="46.0847" lon="7.34665">
        <ele>2713.7</ele>
        <time>2018-12-31T11:01:03Z</time>
      </trkpt>
      <trkpt lat="46.08458" lon="7.34656">
        <ele>2713.7</ele>
        <time>2018-12-31T11:01:23Z</time>
      </trkpt>
      <trkpt lat="46.08446" lon="7.34644">
        <ele>2713.7</ele>
        <time>2018-12-31T11:01:43Z</time>
      </trkpt>
      <trkpt lat="46.08434" lon="7.34623">
        <ele>2713.7</ele>
        <time>2018-12-31T11:02:03Z</time>
      </trkpt>
      <trkpt lat="46.08417" lon="7.34614">
        <ele>2713.7</ele>
        <time>2018-12-31T11:02:23Z</time>
      </trkpt>
      <trkpt lat="46.08404" lon="7.34611">
        <ele>2713.7</ele>
        <time>2018-12-31T11:02:38Z</time>
      </trkpt>
      <trkpt lat="46.08391" lon="7.34603">
        <ele>2711.5</ele>
        <time>2018-12-31T11:02:53Z</time>
      </trkpt>
      <trkpt lat="46.08378" lon="7.34585">
        <ele>2705.3</ele>
        <time>2018-12-31T11:03:08Z</time>
      </trkpt>
      <trkpt lat="46.08359" lon="7.34584">
        <ele>2704.2</ele>
        <time>2018-12-31T11:03:18Z</time>
      </trkpt>
      <trkpt lat="46.08341" lon="7.34587">
        <ele>2699.7</ele>
        <time>2018-12-31T11:03:33Z</time>
      </trkpt>
      <trkpt lat="46.08321" lon="7.34577">
        <ele>2695.6</ele>
        <time>2018-12-31T11:03:48Z</time>
      </trkpt>
      <trkpt lat="46.08307" lon="7.34574">
        <ele>2695.6</ele>
        <time>2018-12-31T11:04:03Z</time>
      </trkpt>
      <trkpt lat="46.08293" lon="7.34561">
        <ele>2699.5</ele>
        <time>2018-12-31T11:04:23Z</time>
      </trkpt>
      <trkpt lat="46.08282" lon="7.34547">
        <ele>2702.9</ele>
        <time>2018-12-31T11:04:43Z</time>
      </trkpt>
      <trkpt lat="46.08275" lon="7.34528">
        <ele>2705.7</ele>
        <time>2018-12-31T11:05:03Z</time>
      </trkpt>
      <trkpt lat="46.08265" lon="7.34514">
        <ele>2708.9</ele>
        <time>2018-12-31T11:05:28Z</time>
      </trkpt>
      <trkpt lat="46.08251" lon="7.34505">
        <ele>2713.2</ele>
        <time>2018-12-31T11:05:53Z</time>
      </trkpt>
      <trkpt lat="46.08237" lon="7.34498">
        <ele>2713.9</ele>
        <time>2018-12-31T11:06:18Z</time>
      </trkpt>
      <trkpt lat="46.08226" lon="7.34487">
        <ele>2717</ele>
        <time>2018-12-31T11:06:33Z</time>
      </trkpt>
      <trkpt lat="46.08213" lon="7.34477">
        <ele>2721.6</ele>
        <time>2018-12-31T11:06:58Z</time>
      </trkpt>
      <trkpt lat="46.08197" lon="7.34468">
        <ele>2722.8</ele>
        <time>2018-12-31T11:07:28Z</time>
      </trkpt>
      <trkpt lat="46.08183" lon="7.3446">
        <ele>2724.4</ele>
        <time>2018-12-31T11:07:58Z</time>
      </trkpt>
      <trkpt lat="46.0817" lon="7.3445">
        <ele>2728.7</ele>
        <time>2018-12-31T11:08:18Z</time>
      </trkpt>
      <trkpt lat="46.08157" lon="7.34441">
        <ele>2733</ele>
        <time>2018-12-31T11:08:43Z</time>
      </trkpt>
      <trkpt lat="46.08143" lon="7.34437">
        <ele>2734.7</ele>
        <time>2018-12-31T11:09:08Z</time>
      </trkpt>
      <trkpt lat="46.08129" lon="7.34428">
        <ele>2737.2</ele>
        <time>2018-12-31T11:09:38Z</time>
      </trkpt>
      <trkpt lat="46.08111" lon="7.3442">
        <ele>2739.8</ele>
        <time>2018-12-31T11:10:18Z</time>
      </trkpt>
      <trkpt lat="46.08097" lon="7.34415">
        <ele>2741.8</ele>
        <time>2018-12-31T11:10:53Z</time>
      </trkpt>
      <trkpt lat="46.08082" lon="7.34411">
        <ele>2744.2</ele>
        <time>2018-12-31T11:11:23Z</time>
      </trkpt>
      <trkpt lat="46.08067" lon="7.34413">
        <ele>2747.8</ele>
        <time>2018-12-31T11:11:48Z</time>
      </trkpt>
      <trkpt lat="46.08052" lon="7.3441">
        <ele>2752</ele>
        <time>2018-12-31T11:12:13Z</time>
      </trkpt>
      <trkpt lat="46.08038" lon="7.34412">
        <ele>2751.4</ele>
        <time>2018-12-31T11:12:38Z</time>
      </trkpt>
      <trkpt lat="46.08023" lon="7.34416">
        <ele>2753.4</ele>
        <time>2018-12-31T11:13:03Z</time>
      </trkpt>
      <trkpt lat="46.08009" lon="7.34423">
        <ele>2760.7</ele>
        <time>2018-12-31T11:13:28Z</time>
      </trkpt>
      <trkpt lat="46.07997" lon="7.34434">
        <ele>2764.3</ele>
        <time>2018-12-31T11:13:58Z</time>
      </trkpt>
      <trkpt lat="46.07995" lon="7.34412">
        <ele>2769.8</ele>
        <time>2018-12-31T11:14:58Z</time>
      </trkpt>
      <trkpt lat="46.07996" lon="7.34393">
        <ele>2769.4</ele>
        <time>2018-12-31T11:15:28Z</time>
      </trkpt>
      <trkpt lat="46.07989" lon="7.34375">
        <ele>2773.4</ele>
        <time>2018-12-31T11:15:48Z</time>
      </trkpt>
      <trkpt lat="46.07976" lon="7.34381">
        <ele>2778.1</ele>
        <time>2018-12-31T11:16:18Z</time>
      </trkpt>
      <trkpt lat="46.07965" lon="7.34396">
        <ele>2781.2</ele>
        <time>2018-12-31T11:16:48Z</time>
      </trkpt>
      <trkpt lat="46.07956" lon="7.34412">
        <ele>2783.3</ele>
        <time>2018-12-31T11:17:18Z</time>
      </trkpt>
      <trkpt lat="46.07942" lon="7.3441">
        <ele>2788.8</ele>
        <time>2018-12-31T11:17:58Z</time>
      </trkpt>
      <trkpt lat="46.07929" lon="7.3442">
        <ele>2791.3</ele>
        <time>2018-12-31T11:18:18Z</time>
      </trkpt>
      <trkpt lat="46.07916" lon="7.34427">
        <ele>2795.1</ele>
        <time>2018-12-31T11:18:38Z</time>
      </trkpt>
      <trkpt lat="46.07902" lon="7.34432">
        <ele>2795.3</ele>
        <time>2018-12-31T11:19:08Z</time>
      </trkpt>
      <trkpt lat="46.07886" lon="7.34431">
        <ele>2795.6</ele>
        <time>2018-12-31T11:19:33Z</time>
      </trkpt>
      <trkpt lat="46.0787" lon="7.34439">
        <ele>2800.2</ele>
        <time>2018-12-31T11:20:03Z</time>
      </trkpt>
      <trkpt lat="46.07855" lon="7.34434">
        <ele>2804</ele>
        <time>2018-12-31T11:20:28Z</time>
      </trkpt>
      <trkpt lat="46.07841" lon="7.34426">
        <ele>2803.4</ele>
        <time>2018-12-31T11:20:58Z</time>
      </trkpt>
      <trkpt lat="46.07834" lon="7.34443">
        <ele>2813</ele>
        <time>2018-12-31T11:21:18Z</time>
      </trkpt>
      <trkpt lat="46.0782" lon="7.34447">
        <ele>2818.4</ele>
        <time>2018-12-31T11:21:58Z</time>
      </trkpt>
      <trkpt lat="46.07806" lon="7.34442">
        <ele>2821.8</ele>
        <time>2018-12-31T11:22:28Z</time>
      </trkpt>
      <trkpt lat="46.07795" lon="7.34455">
        <ele>2829.1</ele>
        <time>2018-12-31T11:23:23Z</time>
      </trkpt>
      <trkpt lat="46.07795" lon="7.34474">
        <ele>2834.8</ele>
        <time>2018-12-31T11:23:53Z</time>
      </trkpt>
      <trkpt lat="46.07799" lon="7.34495">
        <ele>2835.4</ele>
        <time>2018-12-31T11:24:18Z</time>
      </trkpt>
      <trkpt lat="46.07807" lon="7.34513">
        <ele>2839.4</ele>
        <time>2018-12-31T11:24:48Z</time>
      </trkpt>
      <trkpt lat="46.07793" lon="7.34517">
        <ele>2845.4</ele>
        <time>2018-12-31T11:25:53Z</time>
      </trkpt>
      <trkpt lat="46.07777" lon="7.34514">
        <ele>2849.6</ele>
        <time>2018-12-31T11:26:18Z</time>
      </trkpt>
      <trkpt lat="46.07759" lon="7.34517">
        <ele>2853</ele>
        <time>2018-12-31T11:26:48Z</time>
      </trkpt>
      <trkpt lat="46.07747" lon="7.34527">
        <ele>2858.3</ele>
        <time>2018-12-31T11:27:13Z</time>
      </trkpt>
      <trkpt lat="46.07736" lon="7.3454">
        <ele>2858.7</ele>
        <time>2018-12-31T11:27:38Z</time>
      </trkpt>
      <trkpt lat="46.07724" lon="7.34557">
        <ele>2858.7</ele>
        <time>2018-12-31T11:28:03Z</time>
      </trkpt>
      <trkpt lat="46.07713" lon="7.3458">
        <ele>2858.2</ele>
        <time>2018-12-31T11:28:13Z</time>
      </trkpt>
      <trkpt lat="46.07701" lon="7.34596">
        <ele>2859.6</ele>
        <time>2018-12-31T11:28:33Z</time>
      </trkpt>
      <trkpt lat="46.07694" lon="7.34612">
        <ele>2858.7</ele>
        <time>2018-12-31T11:28:48Z</time>
      </trkpt>
      <trkpt lat="46.07683" lon="7.3463">
        <ele>2858.7</ele>
        <time>2018-12-31T11:29:08Z</time>
      </trkpt>
      <trkpt lat="46.07678" lon="7.3465">
        <ele>2860.1</ele>
        <time>2018-12-31T11:29:28Z</time>
      </trkpt>
      <trkpt lat="46.07667" lon="7.34667">
        <ele>2858.9</ele>
        <time>2018-12-31T11:29:48Z</time>
      </trkpt>
      <trkpt lat="46.07656" lon="7.34684">
        <ele>2863.8</ele>
        <time>2018-12-31T11:30:13Z</time>
      </trkpt>
      <trkpt lat="46.07647" lon="7.34701">
        <ele>2869.7</ele>
        <time>2018-12-31T11:30:33Z</time>
      </trkpt>
      <trkpt lat="46.07638" lon="7.34721">
        <ele>2876.1</ele>
        <time>2018-12-31T11:30:58Z</time>
      </trkpt>
      <trkpt lat="46.07624" lon="7.34734">
        <ele>2880.5</ele>
        <time>2018-12-31T11:31:28Z</time>
      </trkpt>
      <trkpt lat="46.07612" lon="7.34744">
        <ele>2883.8</ele>
        <time>2018-12-31T11:31:53Z</time>
      </trkpt>
      <trkpt lat="46.07601" lon="7.34758">
        <ele>2887.9</ele>
        <time>2018-12-31T11:32:13Z</time>
      </trkpt>
      <trkpt lat="46.07587" lon="7.34756">
        <ele>2888</ele>
        <time>2018-12-31T11:32:43Z</time>
      </trkpt>
      <trkpt lat="46.07575" lon="7.34741">
        <ele>2888.3</ele>
        <time>2018-12-31T11:33:13Z</time>
      </trkpt>
      <trkpt lat="46.07561" lon="7.34731">
        <ele>2892.7</ele>
        <time>2018-12-31T11:33:33Z</time>
      </trkpt>
      <trkpt lat="46.07549" lon="7.34719">
        <ele>2897</ele>
        <time>2018-12-31T11:33:48Z</time>
      </trkpt>
      <trkpt lat="46.07537" lon="7.347">
        <ele>2900.9</ele>
        <time>2018-12-31T11:34:08Z</time>
      </trkpt>
      <trkpt lat="46.0752" lon="7.34693">
        <ele>2904</ele>
        <time>2018-12-31T11:34:28Z</time>
      </trkpt>
      <trkpt lat="46.07505" lon="7.34688">
        <ele>2902</ele>
        <time>2018-12-31T11:34:43Z</time>
      </trkpt>
      <trkpt lat="46.07491" lon="7.34689">
        <ele>2902.1</ele>
        <time>2018-12-31T11:34:58Z</time>
      </trkpt>
      <trkpt lat="46.07476" lon="7.34697">
        <ele>2904</ele>
        <time>2018-12-31T11:35:13Z</time>
      </trkpt>
      <trkpt lat="46.0746" lon="7.34705">
        <ele>2901.7</ele>
        <time>2018-12-31T11:35:28Z</time>
      </trkpt>
      <trkpt lat="46.07442" lon="7.34712">
        <ele>2900.4</ele>
        <time>2018-12-31T11:35:43Z</time>
      </trkpt>
      <trkpt lat="46.07426" lon="7.34716">
        <ele>2901.8</ele>
        <time>2018-12-31T11:35:58Z</time>
      </trkpt>
      <trkpt lat="46.07408" lon="7.34718">
        <ele>2902.2</ele>
        <time>2018-12-31T11:36:13Z</time>
      </trkpt>
      <trkpt lat="46.0739" lon="7.34724">
        <ele>2904</ele>
        <time>2018-12-31T11:36:28Z</time>
      </trkpt>
      <trkpt lat="46.07374" lon="7.34731">
        <ele>2905.5</ele>
        <time>2018-12-31T11:36:43Z</time>
      </trkpt>
      <trkpt lat="46.07357" lon="7.34733">
        <ele>2908.1</ele>
        <time>2018-12-31T11:36:58Z</time>
      </trkpt>
      <trkpt lat="46.07341" lon="7.34736">
        <ele>2911.5</ele>
        <time>2018-12-31T11:37:13Z</time>
      </trkpt>
      <trkpt lat="46.07323" lon="7.34735">
        <ele>2916.1</ele>
        <time>2018-12-31T11:37:33Z</time>
      </trkpt>
      <trkpt lat="46.07309" lon="7.34737">
        <ele>2920.7</ele>
        <time>2018-12-31T11:37:48Z</time>
      </trkpt>
      <trkpt lat="46.07294" lon="7.34733">
        <ele>2922.1</ele>
        <time>2018-12-31T11:38:03Z</time>
      </trkpt>
      <trkpt lat="46.07279" lon="7.34732">
        <ele>2922.1</ele>
        <time>2018-12-31T11:38:23Z</time>
      </trkpt>
      <trkpt lat="46.07264" lon="7.34728">
        <ele>2926.4</ele>
        <time>2018-12-31T11:38:48Z</time>
      </trkpt>
      <trkpt lat="46.07251" lon="7.34727">
        <ele>2930.4</ele>
        <time>2018-12-31T11:39:08Z</time>
      </trkpt>
      <trkpt lat="46.07238" lon="7.3472">
        <ele>2931.4</ele>
        <time>2018-12-31T11:39:33Z</time>
      </trkpt>
      <trkpt lat="46.07225" lon="7.34715">
        <ele>2933.2</ele>
        <time>2018-12-31T11:39:53Z</time>
      </trkpt>
      <trkpt lat="46.07209" lon="7.34709">
        <ele>2937.5</ele>
        <time>2018-12-31T11:40:23Z</time>
      </trkpt>
      <trkpt lat="46.07195" lon="7.34708">
        <ele>2940.1</ele>
        <time>2018-12-31T11:40:43Z</time>
      </trkpt>
      <trkpt lat="46.07181" lon="7.34708">
        <ele>2944.4</ele>
        <time>2018-12-31T11:41:08Z</time>
      </trkpt>
      <trkpt lat="46.07167" lon="7.34702">
        <ele>2948.9</ele>
        <time>2018-12-31T11:41:28Z</time>
      </trkpt>
      <trkpt lat="46.07151" lon="7.34701">
        <ele>2949.3</ele>
        <time>2018-12-31T11:41:53Z</time>
      </trkpt>
      <trkpt lat="46.07137" lon="7.34698">
        <ele>2949.3</ele>
        <time>2018-12-31T11:42:08Z</time>
      </trkpt>
      <trkpt lat="46.07122" lon="7.34695">
        <ele>2949.3</ele>
        <time>2018-12-31T11:42:28Z</time>
      </trkpt>
      <trkpt lat="46.07109" lon="7.34689">
        <ele>2950</ele>
        <time>2018-12-31T11:42:48Z</time>
      </trkpt>
      <trkpt lat="46.07093" lon="7.34683">
        <ele>2955.1</ele>
        <time>2018-12-31T11:43:13Z</time>
      </trkpt>
      <trkpt lat="46.07078" lon="7.34683">
        <ele>2958.4</ele>
        <time>2018-12-31T11:43:33Z</time>
      </trkpt>
      <trkpt lat="46.07064" lon="7.34679">
        <ele>2958.4</ele>
        <time>2018-12-31T11:43:58Z</time>
      </trkpt>
      <trkpt lat="46.07049" lon="7.34677">
        <ele>2959.4</ele>
        <time>2018-12-31T11:48:28Z</time>
      </trkpt>
      <trkpt lat="46.07033" lon="7.3467">
        <ele>2964.6</ele>
        <time>2018-12-31T11:48:48Z</time>
      </trkpt>
      <trkpt lat="46.0702" lon="7.34665">
        <ele>2967.5</ele>
        <time>2018-12-31T11:49:08Z</time>
      </trkpt>
      <trkpt lat="46.07005" lon="7.34664">
        <ele>2967.5</ele>
        <time>2018-12-31T11:49:28Z</time>
      </trkpt>
      <trkpt lat="46.06991" lon="7.3466">
        <ele>2967.5</ele>
        <time>2018-12-31T11:49:48Z</time>
      </trkpt>
      <trkpt lat="46.06978" lon="7.34653">
        <ele>2967.5</ele>
        <time>2018-12-31T11:50:08Z</time>
      </trkpt>
      <trkpt lat="46.06963" lon="7.34653">
        <ele>2970.1</ele>
        <time>2018-12-31T11:50:28Z</time>
      </trkpt>
      <trkpt lat="46.06948" lon="7.34653">
        <ele>2975.1</ele>
        <time>2018-12-31T11:50:53Z</time>
      </trkpt>
      <trkpt lat="46.06935" lon="7.34655">
        <ele>2979.5</ele>
        <time>2018-12-31T11:51:18Z</time>
      </trkpt>
      <trkpt lat="46.06918" lon="7.34655">
        <ele>2984.7</ele>
        <time>2018-12-31T11:51:43Z</time>
      </trkpt>
      <trkpt lat="46.06904" lon="7.34655">
        <ele>2987.6</ele>
        <time>2018-12-31T11:52:03Z</time>
      </trkpt>
      <trkpt lat="46.06888" lon="7.34661">
        <ele>2992.7</ele>
        <time>2018-12-31T11:52:28Z</time>
      </trkpt>
      <trkpt lat="46.06874" lon="7.34663">
        <ele>2994.1</ele>
        <time>2018-12-31T11:52:53Z</time>
      </trkpt>
      <trkpt lat="46.06859" lon="7.34665">
        <ele>2994.9</ele>
        <time>2018-12-31T11:53:18Z</time>
      </trkpt>
      <trkpt lat="46.06843" lon="7.34662">
        <ele>3000.2</ele>
        <time>2018-12-31T11:53:48Z</time>
      </trkpt>
      <trkpt lat="46.0683" lon="7.34667">
        <ele>3004.8</ele>
        <time>2018-12-31T11:54:18Z</time>
      </trkpt>
      <trkpt lat="46.06815" lon="7.34672">
        <ele>3009.5</ele>
        <time>2018-12-31T11:54:43Z</time>
      </trkpt>
      <trkpt lat="46.06799" lon="7.34673">
        <ele>3014.7</ele>
        <time>2018-12-31T11:55:08Z</time>
      </trkpt>
      <trkpt lat="46.06784" lon="7.34676">
        <ele>3019.4</ele>
        <time>2018-12-31T11:55:33Z</time>
      </trkpt>
      <trkpt lat="46.06769" lon="7.34677">
        <ele>3022.8</ele>
        <time>2018-12-31T11:55:58Z</time>
      </trkpt>
      <trkpt lat="46.06759" lon="7.34691">
        <ele>3027</ele>
        <time>2018-12-31T11:56:23Z</time>
      </trkpt>
      <trkpt lat="46.06749" lon="7.3471">
        <ele>3031.2</ele>
        <time>2018-12-31T11:56:53Z</time>
      </trkpt>
      <trkpt lat="46.06742" lon="7.34728">
        <ele>3033.4</ele>
        <time>2018-12-31T11:57:18Z</time>
      </trkpt>
      <trkpt lat="46.06729" lon="7.34739">
        <ele>3037.6</ele>
        <time>2018-12-31T11:57:43Z</time>
      </trkpt>
      <trkpt lat="46.06719" lon="7.34753">
        <ele>3040</ele>
        <time>2018-12-31T11:58:08Z</time>
      </trkpt>
      <trkpt lat="46.06712" lon="7.3477">
        <ele>3042.4</ele>
        <time>2018-12-31T11:58:28Z</time>
      </trkpt>
      <trkpt lat="46.06699" lon="7.34782">
        <ele>3047.4</ele>
        <time>2018-12-31T11:58:53Z</time>
      </trkpt>
      <trkpt lat="46.06686" lon="7.34798">
        <ele>3049</ele>
        <time>2018-12-31T11:59:18Z</time>
      </trkpt>
      <trkpt lat="46.06673" lon="7.34813">
        <ele>3051.1</ele>
        <time>2018-12-31T11:59:48Z</time>
      </trkpt>
      <trkpt lat="46.06663" lon="7.34827">
        <ele>3055.9</ele>
        <time>2018-12-31T12:00:08Z</time>
      </trkpt>
      <trkpt lat="46.06654" lon="7.34843">
        <ele>3058.1</ele>
        <time>2018-12-31T12:00:33Z</time>
      </trkpt>
      <trkpt lat="46.06646" lon="7.34862">
        <ele>3058.1</ele>
        <time>2018-12-31T12:00:58Z</time>
      </trkpt>
      <trkpt lat="46.06638" lon="7.34877">
        <ele>3062.8</ele>
        <time>2018-12-31T12:01:18Z</time>
      </trkpt>
      <trkpt lat="46.06627" lon="7.3489">
        <ele>3067.3</ele>
        <time>2018-12-31T12:01:38Z</time>
      </trkpt>
      <trkpt lat="46.06616" lon="7.34907">
        <ele>3072.8</ele>
        <time>2018-12-31T12:02:03Z</time>
      </trkpt>
      <trkpt lat="46.06608" lon="7.34924">
        <ele>3076.2</ele>
        <time>2018-12-31T12:02:28Z</time>
      </trkpt>
      <trkpt lat="46.06601" lon="7.34941">
        <ele>3076.2</ele>
        <time>2018-12-31T12:02:53Z</time>
      </trkpt>
      <trkpt lat="46.06588" lon="7.34954">
        <ele>3078.6</ele>
        <time>2018-12-31T12:03:23Z</time>
      </trkpt>
      <trkpt lat="46.06577" lon="7.34971">
        <ele>3084.7</ele>
        <time>2018-12-31T12:03:48Z</time>
      </trkpt>
      <trkpt lat="46.06566" lon="7.34987">
        <ele>3087.8</ele>
        <time>2018-12-31T12:04:13Z</time>
      </trkpt>
      <trkpt lat="46.06554" lon="7.34996">
        <ele>3093</ele>
        <time>2018-12-31T12:04:38Z</time>
      </trkpt>
      <trkpt lat="46.06542" lon="7.3501">
        <ele>3094.3</ele>
        <time>2018-12-31T12:05:03Z</time>
      </trkpt>
      <trkpt lat="46.0653" lon="7.35021">
        <ele>3094.3</ele>
        <time>2018-12-31T12:05:28Z</time>
      </trkpt>
      <trkpt lat="46.06515" lon="7.35024">
        <ele>3098.1</ele>
        <time>2018-12-31T12:06:03Z</time>
      </trkpt>
      <trkpt lat="46.06501" lon="7.35027">
        <ele>3102.4</ele>
        <time>2018-12-31T12:06:28Z</time>
      </trkpt>
      <trkpt lat="46.06488" lon="7.35042">
        <ele>3106.9</ele>
        <time>2018-12-31T12:06:53Z</time>
      </trkpt>
      <trkpt lat="46.06473" lon="7.35042">
        <ele>3112.2</ele>
        <time>2018-12-31T12:07:23Z</time>
      </trkpt>
      <trkpt lat="46.06459" lon="7.35042">
        <ele>3116.6</ele>
        <time>2018-12-31T12:07:58Z</time>
      </trkpt>
      <trkpt lat="46.06445" lon="7.35044">
        <ele>3120.7</ele>
        <time>2018-12-31T12:08:18Z</time>
      </trkpt>
      <trkpt lat="46.06432" lon="7.3505">
        <ele>3121.5</ele>
        <time>2018-12-31T12:08:43Z</time>
      </trkpt>
      <trkpt lat="46.06418" lon="7.35051">
        <ele>3121.5</ele>
        <time>2018-12-31T12:09:13Z</time>
      </trkpt>
      <trkpt lat="46.06405" lon="7.35044">
        <ele>3125.5</ele>
        <time>2018-12-31T12:09:43Z</time>
      </trkpt>
      <trkpt lat="46.06391" lon="7.35036">
        <ele>3129.5</ele>
        <time>2018-12-31T12:10:13Z</time>
      </trkpt>
      <trkpt lat="46.06379" lon="7.35028">
        <ele>3133.9</ele>
        <time>2018-12-31T12:10:43Z</time>
      </trkpt>
      <trkpt lat="46.06364" lon="7.3503">
        <ele>3138.2</ele>
        <time>2018-12-31T12:11:08Z</time>
      </trkpt>
      <trkpt lat="46.06357" lon="7.35047">
        <ele>3141</ele>
        <time>2018-12-31T12:11:43Z</time>
      </trkpt>
      <trkpt lat="46.06352" lon="7.35067">
        <ele>3143.9</ele>
        <time>2018-12-31T12:12:08Z</time>
      </trkpt>
      <trkpt lat="46.06346" lon="7.35088">
        <ele>3150.2</ele>
        <time>2018-12-31T12:12:33Z</time>
      </trkpt>
      <trkpt lat="46.06342" lon="7.35111">
        <ele>3154.6</ele>
        <time>2018-12-31T12:12:58Z</time>
      </trkpt>
      <trkpt lat="46.06338" lon="7.3513">
        <ele>3156.2</ele>
        <time>2018-12-31T12:13:28Z</time>
      </trkpt>
      <trkpt lat="46.06334" lon="7.35151">
        <ele>3160.7</ele>
        <time>2018-12-31T12:13:53Z</time>
      </trkpt>
      <trkpt lat="46.06334" lon="7.35172">
        <ele>3168.1</ele>
        <time>2018-12-31T12:14:18Z</time>
      </trkpt>
      <trkpt lat="46.06332" lon="7.35193">
        <ele>3175.9</ele>
        <time>2018-12-31T12:14:53Z</time>
      </trkpt>
      <trkpt lat="46.06331" lon="7.35213">
        <ele>3176.4</ele>
        <time>2018-12-31T12:15:18Z</time>
      </trkpt>
      <trkpt lat="46.06332" lon="7.35236">
        <ele>3176.5</ele>
        <time>2018-12-31T12:15:48Z</time>
      </trkpt>
      <trkpt lat="46.06325" lon="7.35255">
        <ele>3178.8</ele>
        <time>2018-12-31T12:16:18Z</time>
      </trkpt>
      <trkpt lat="46.06326" lon="7.3528">
        <ele>3181.4</ele>
        <time>2018-12-31T12:16:53Z</time>
      </trkpt>
      <trkpt lat="46.06322" lon="7.35299">
        <ele>3187</ele>
        <time>2018-12-31T12:17:18Z</time>
      </trkpt>
      <trkpt lat="46.06319" lon="7.3532">
        <ele>3190</ele>
        <time>2018-12-31T12:17:53Z</time>
      </trkpt>
      <trkpt lat="46.06317" lon="7.35343">
        <ele>3193.5</ele>
        <time>2018-12-31T12:18:23Z</time>
      </trkpt>
      <trkpt lat="46.06316" lon="7.35366">
        <ele>3199.3</ele>
        <time>2018-12-31T12:18:53Z</time>
      </trkpt>
      <trkpt lat="46.06312" lon="7.3539">
        <ele>3200.8</ele>
        <time>2018-12-31T12:19:38Z</time>
      </trkpt>
      <trkpt lat="46.06302" lon="7.35408">
        <ele>3204</ele>
        <time>2018-12-31T12:20:08Z</time>
      </trkpt>
      <trkpt lat="46.06291" lon="7.35422">
        <ele>3207.6</ele>
        <time>2018-12-31T12:20:38Z</time>
      </trkpt>
      <trkpt lat="46.06283" lon="7.35437">
        <ele>3210.4</ele>
        <time>2018-12-31T12:21:08Z</time>
      </trkpt>
      <trkpt lat="46.06275" lon="7.35456">
        <ele>3216.9</ele>
        <time>2018-12-31T12:21:28Z</time>
      </trkpt>
      <trkpt lat="46.06265" lon="7.3548">
        <ele>3224.8</ele>
        <time>2018-12-31T12:23:58Z</time>
      </trkpt>
      <trkpt lat="46.06256" lon="7.35499">
        <ele>3228.4</ele>
        <time>2018-12-31T12:24:28Z</time>
      </trkpt>
      <trkpt lat="46.06247" lon="7.35515">
        <ele>3235.3</ele>
        <time>2018-12-31T12:24:58Z</time>
      </trkpt>
      <trkpt lat="46.06239" lon="7.35533">
        <ele>3240.1</ele>
        <time>2018-12-31T12:25:28Z</time>
      </trkpt>
      <trkpt lat="46.06229" lon="7.35549">
        <ele>3244.4</ele>
        <time>2018-12-31T12:25:53Z</time>
      </trkpt>
      <trkpt lat="46.06225" lon="7.35568">
        <ele>3247.7</ele>
        <time>2018-12-31T12:26:18Z</time>
      </trkpt>
      <trkpt lat="46.06221" lon="7.35588">
        <ele>3248.7</ele>
        <time>2018-12-31T12:26:53Z</time>
      </trkpt>
      <trkpt lat="46.06214" lon="7.35605">
        <ele>3250.9</ele>
        <time>2018-12-31T12:27:33Z</time>
      </trkpt>
      <trkpt lat="46.06199" lon="7.35595">
        <ele>3255.6</ele>
        <time>2018-12-31T12:28:23Z</time>
      </trkpt>
      <trkpt lat="46.06185" lon="7.35588">
        <ele>3260.8</ele>
        <time>2018-12-31T12:28:53Z</time>
      </trkpt>
      <trkpt lat="46.06182" lon="7.35612">
        <ele>3265.5</ele>
        <time>2018-12-31T12:29:33Z</time>
      </trkpt>
      <trkpt lat="46.06169" lon="7.35599">
        <ele>3270.4</ele>
        <time>2018-12-31T12:30:43Z</time>
      </trkpt>
      <trkpt lat="46.0616" lon="7.35584">
        <ele>3270.8</ele>
        <time>2018-12-31T12:31:08Z</time>
      </trkpt>
      <trkpt lat="46.06151" lon="7.35569">
        <ele>3274</ele>
        <time>2018-12-31T12:31:38Z</time>
      </trkpt>
      <trkpt lat="46.06142" lon="7.35552">
        <ele>3274.7</ele>
        <time>2018-12-31T12:32:03Z</time>
      </trkpt>
      <trkpt lat="46.06133" lon="7.35535">
        <ele>3278.9</ele>
        <time>2018-12-31T12:32:33Z</time>
      </trkpt>
      <trkpt lat="46.06121" lon="7.35525">
        <ele>3286.4</ele>
        <time>2018-12-31T12:32:53Z</time>
      </trkpt>
      <trkpt lat="46.06109" lon="7.35513">
        <ele>3294.5</ele>
        <time>2018-12-31T12:33:18Z</time>
      </trkpt>
      <trkpt lat="46.061" lon="7.35497">
        <ele>3297.4</ele>
        <time>2018-12-31T12:33:48Z</time>
      </trkpt>
      <trkpt lat="46.06091" lon="7.35481">
        <ele>3300.4</ele>
        <time>2018-12-31T12:34:18Z</time>
      </trkpt>
      <trkpt lat="46.06073" lon="7.35484">
        <ele>3304.7</ele>
        <time>2018-12-31T12:34:48Z</time>
      </trkpt>
      <trkpt lat="46.06067" lon="7.35502">
        <ele>3302.4</ele>
        <time>2018-12-31T12:35:13Z</time>
      </trkpt>
      <trkpt lat="46.06073" lon="7.3552">
        <ele>3300.4</ele>
        <time>2018-12-31T12:39:13Z</time>
      </trkpt>
      <trkpt lat="46.06075" lon="7.355">
        <ele>3302.6</ele>
        <time>2018-12-31T12:40:23Z</time>
      </trkpt>
      <trkpt lat="46.06068" lon="7.35478">
        <ele>3306.2</ele>
        <time>2018-12-31T12:41:18Z</time>
      </trkpt>
      <trkpt lat="46.06062" lon="7.3546">
        <ele>3313.5</ele>
        <time>2018-12-31T12:41:53Z</time>
      </trkpt>
      <trkpt lat="46.06049" lon="7.35448">
        <ele>3317.2</ele>
        <time>2018-12-31T12:43:28Z</time>
      </trkpt>
      <trkpt lat="46.06057" lon="7.35432">
        <ele>3320.5</ele>
        <time>2018-12-31T12:47:03Z</time>
      </trkpt>
      <trkpt lat="46.06039" lon="7.35416">
        <ele>3051.6</ele>
        <time>2018-12-31T12:50:42Z</time>
      </trkpt>
      <trkpt lat="46.0605" lon="7.35428">
        <ele>3320.1</ele>
        <time>2018-12-31T12:52:42Z</time>
      </trkpt>
      <trkpt lat="46.06048" lon="7.35448">
        <ele>3328.6</ele>
        <time>2018-12-31T12:56:02Z</time>
      </trkpt>
      <trkpt lat="46.06061" lon="7.35458">
        <ele>3315.5</ele>
        <time>2018-12-31T12:57:02Z</time>
      </trkpt>
      <trkpt lat="46.06068" lon="7.35475">
        <ele>3307.8</ele>
        <time>2018-12-31T12:57:27Z</time>
      </trkpt>
      <trkpt lat="46.0607" lon="7.35496">
        <ele>3303.7</ele>
        <time>2018-12-31T12:57:57Z</time>
      </trkpt>
      <trkpt lat="46.06067" lon="7.35516">
        <ele>3300.1</ele>
        <time>2018-12-31T12:58:12Z</time>
      </trkpt>
      <trkpt lat="46.06083" lon="7.35532">
        <ele>3300.9</ele>
        <time>2018-12-31T13:04:27Z</time>
      </trkpt>
      <trkpt lat="46.06106" lon="7.35548">
        <ele>3294.7</ele>
        <time>2018-12-31T13:04:37Z</time>
      </trkpt>
      <trkpt lat="46.06121" lon="7.3555">
        <ele>3285.7</ele>
        <time>2018-12-31T13:04:42Z</time>
      </trkpt>
      <trkpt lat="46.06138" lon="7.35555">
        <ele>3272.6</ele>
        <time>2018-12-31T13:04:47Z</time>
      </trkpt>
      <trkpt lat="46.06153" lon="7.35558">
        <ele>3272.2</ele>
        <time>2018-12-31T13:04:52Z</time>
      </trkpt>
      <trkpt lat="46.06167" lon="7.35559">
        <ele>3269.9</ele>
        <time>2018-12-31T13:04:57Z</time>
      </trkpt>
      <trkpt lat="46.0619" lon="7.35582">
        <ele>3268</ele>
        <time>2018-12-31T13:05:02Z</time>
      </trkpt>
      <trkpt lat="46.06209" lon="7.35592">
        <ele>3263.4</ele>
        <time>2018-12-31T13:05:07Z</time>
      </trkpt>
      <trkpt lat="46.06229" lon="7.35593">
        <ele>3256.4</ele>
        <time>2018-12-31T13:05:12Z</time>
      </trkpt>
      <trkpt lat="46.06245" lon="7.35572">
        <ele>3251.1</ele>
        <time>2018-12-31T13:05:17Z</time>
      </trkpt>
      <trkpt lat="46.06262" lon="7.35574">
        <ele>3244.8</ele>
        <time>2018-12-31T13:05:22Z</time>
      </trkpt>
      <trkpt lat="46.06269" lon="7.35549">
        <ele>3239.6</ele>
        <time>2018-12-31T13:05:27Z</time>
      </trkpt>
      <trkpt lat="46.06273" lon="7.35525">
        <ele>3236.4</ele>
        <time>2018-12-31T13:05:32Z</time>
      </trkpt>
      <trkpt lat="46.06291" lon="7.35487">
        <ele>3230.5</ele>
        <time>2018-12-31T13:05:42Z</time>
      </trkpt>
      <trkpt lat="46.06303" lon="7.35467">
        <ele>3221.3</ele>
        <time>2018-12-31T13:05:47Z</time>
      </trkpt>
      <trkpt lat="46.0631" lon="7.35434">
        <ele>3212.2</ele>
        <time>2018-12-31T13:05:52Z</time>
      </trkpt>
      <trkpt lat="46.06319" lon="7.3541">
        <ele>3206.7</ele>
        <time>2018-12-31T13:05:57Z</time>
      </trkpt>
      <trkpt lat="46.06323" lon="7.35376">
        <ele>3202.6</ele>
        <time>2018-12-31T13:06:02Z</time>
      </trkpt>
      <trkpt lat="46.06324" lon="7.35344">
        <ele>3199.5</ele>
        <time>2018-12-31T13:06:07Z</time>
      </trkpt>
      <trkpt lat="46.06324" lon="7.35319">
        <ele>3194.6</ele>
        <time>2018-12-31T13:06:12Z</time>
      </trkpt>
      <trkpt lat="46.06325" lon="7.35291">
        <ele>3191.1</ele>
        <time>2018-12-31T13:06:17Z</time>
      </trkpt>
      <trkpt lat="46.06339" lon="7.35288">
        <ele>3186.9</ele>
        <time>2018-12-31T13:06:22Z</time>
      </trkpt>
      <trkpt lat="46.0635" lon="7.35237">
        <ele>3178.6</ele>
        <time>2018-12-31T13:06:32Z</time>
      </trkpt>
      <trkpt lat="46.06364" lon="7.3522">
        <ele>3174.2</ele>
        <time>2018-12-31T13:06:37Z</time>
      </trkpt>
      <trkpt lat="46.06377" lon="7.35207">
        <ele>3170.4</ele>
        <time>2018-12-31T13:06:42Z</time>
      </trkpt>
      <trkpt lat="46.0639" lon="7.35185">
        <ele>3166.5</ele>
        <time>2018-12-31T13:06:47Z</time>
      </trkpt>
      <trkpt lat="46.06416" lon="7.35184">
        <ele>3163.2</ele>
        <time>2018-12-31T13:06:52Z</time>
      </trkpt>
      <trkpt lat="46.06423" lon="7.35153">
        <ele>3131.9</ele>
        <time>2018-12-31T13:06:57Z</time>
      </trkpt>
      <trkpt lat="46.06448" lon="7.35137">
        <ele>3111.1</ele>
        <time>2018-12-31T13:07:02Z</time>
      </trkpt>
      <trkpt lat="46.06454" lon="7.35099">
        <ele>3111.5</ele>
        <time>2018-12-31T13:07:07Z</time>
      </trkpt>
      <trkpt lat="46.06465" lon="7.35087">
        <ele>3111.5</ele>
        <time>2018-12-31T13:07:12Z</time>
      </trkpt>
      <trkpt lat="46.06478" lon="7.35061">
        <ele>3106.1</ele>
        <time>2018-12-31T13:07:22Z</time>
      </trkpt>
      <trkpt lat="46.065" lon="7.35048">
        <ele>3099.6</ele>
        <time>2018-12-31T13:07:32Z</time>
      </trkpt>
      <trkpt lat="46.0651" lon="7.35033">
        <ele>3094.6</ele>
        <time>2018-12-31T13:07:37Z</time>
      </trkpt>
      <trkpt lat="46.06524" lon="7.35026">
        <ele>3088.1</ele>
        <time>2018-12-31T13:07:42Z</time>
      </trkpt>
      <trkpt lat="46.06539" lon="7.35021">
        <ele>3082</ele>
        <time>2018-12-31T13:07:47Z</time>
      </trkpt>
      <trkpt lat="46.06553" lon="7.35012">
        <ele>3076.8</ele>
        <time>2018-12-31T13:07:52Z</time>
      </trkpt>
      <trkpt lat="46.06568" lon="7.34999">
        <ele>3071.2</ele>
        <time>2018-12-31T13:07:57Z</time>
      </trkpt>
      <trkpt lat="46.06578" lon="7.34984">
        <ele>3065.3</ele>
        <time>2018-12-31T13:08:02Z</time>
      </trkpt>
      <trkpt lat="46.06589" lon="7.34962">
        <ele>3059.7</ele>
        <time>2018-12-31T13:08:07Z</time>
      </trkpt>
      <trkpt lat="46.06601" lon="7.34947">
        <ele>3055.3</ele>
        <time>2018-12-31T13:08:12Z</time>
      </trkpt>
      <trkpt lat="46.06601" lon="7.3492">
        <ele>3052.9</ele>
        <time>2018-12-31T13:08:17Z</time>
      </trkpt>
      <trkpt lat="46.06618" lon="7.34902">
        <ele>3046.2</ele>
        <time>2018-12-31T13:08:22Z</time>
      </trkpt>
      <trkpt lat="46.06643" lon="7.34887">
        <ele>3036.3</ele>
        <time>2018-12-31T13:08:27Z</time>
      </trkpt>
      <trkpt lat="46.06663" lon="7.34851">
        <ele>3029.7</ele>
        <time>2018-12-31T13:08:32Z</time>
      </trkpt>
      <trkpt lat="46.06684" lon="7.34823">
        <ele>3028.4</ele>
        <time>2018-12-31T13:08:37Z</time>
      </trkpt>
      <trkpt lat="46.06713" lon="7.34815">
        <ele>3023.5</ele>
        <time>2018-12-31T13:08:42Z</time>
      </trkpt>
      <trkpt lat="46.06729" lon="7.3482">
        <ele>3019.4</ele>
        <time>2018-12-31T13:08:47Z</time>
      </trkpt>
      <trkpt lat="46.06746" lon="7.3482">
        <ele>3018.9</ele>
        <time>2018-12-31T13:08:52Z</time>
      </trkpt>
      <trkpt lat="46.0676" lon="7.34822">
        <ele>3019.2</ele>
        <time>2018-12-31T13:08:57Z</time>
      </trkpt>
      <trkpt lat="46.06778" lon="7.34842">
        <ele>3015.7</ele>
        <time>2018-12-31T13:09:02Z</time>
      </trkpt>
      <trkpt lat="46.06795" lon="7.34845">
        <ele>3012.9</ele>
        <time>2018-12-31T13:09:07Z</time>
      </trkpt>
      <trkpt lat="46.06815" lon="7.34856">
        <ele>3012.9</ele>
        <time>2018-12-31T13:09:12Z</time>
      </trkpt>
      <trkpt lat="46.06829" lon="7.34855">
        <ele>3012.9</ele>
        <time>2018-12-31T13:09:22Z</time>
      </trkpt>
      <trkpt lat="46.06851" lon="7.34833">
        <ele>3010.7</ele>
        <time>2018-12-31T13:09:32Z</time>
      </trkpt>
      <trkpt lat="46.06854" lon="7.34809">
        <ele>3009</ele>
        <time>2018-12-31T13:09:37Z</time>
      </trkpt>
      <trkpt lat="46.06853" lon="7.34776">
        <ele>3004.3</ele>
        <time>2018-12-31T13:09:47Z</time>
      </trkpt>
      <trkpt lat="46.06854" lon="7.34741">
        <ele>2995.6</ele>
        <time>2018-12-31T13:09:57Z</time>
      </trkpt>
      <trkpt lat="46.06867" lon="7.34724">
        <ele>2989.9</ele>
        <time>2018-12-31T13:10:07Z</time>
      </trkpt>
      <trkpt lat="46.06881" lon="7.34731">
        <ele>2979.2</ele>
        <time>2018-12-31T13:10:22Z</time>
      </trkpt>
      <trkpt lat="46.06899" lon="7.34734">
        <ele>2990.9</ele>
        <time>2018-12-31T13:14:42Z</time>
      </trkpt>
      <trkpt lat="46.06919" lon="7.34726">
        <ele>2985.5</ele>
        <time>2018-12-31T13:14:52Z</time>
      </trkpt>
      <trkpt lat="46.06932" lon="7.34709">
        <ele>2981.1</ele>
        <time>2018-12-31T13:15:02Z</time>
      </trkpt>
      <trkpt lat="46.06949" lon="7.3471">
        <ele>2976.5</ele>
        <time>2018-12-31T13:15:07Z</time>
      </trkpt>
      <trkpt lat="46.06971" lon="7.34731">
        <ele>2969.6</ele>
        <time>2018-12-31T13:15:12Z</time>
      </trkpt>
      <trkpt lat="46.07" lon="7.34745">
        <ele>2967.8</ele>
        <time>2018-12-31T13:15:17Z</time>
      </trkpt>
      <trkpt lat="46.07022" lon="7.34758">
        <ele>2966.3</ele>
        <time>2018-12-31T13:15:22Z</time>
      </trkpt>
      <trkpt lat="46.07044" lon="7.34748">
        <ele>2964</ele>
        <time>2018-12-31T13:15:27Z</time>
      </trkpt>
      <trkpt lat="46.07077" lon="7.34736">
        <ele>2961</ele>
        <time>2018-12-31T13:15:32Z</time>
      </trkpt>
      <trkpt lat="46.07117" lon="7.34726">
        <ele>2959.6</ele>
        <time>2018-12-31T13:15:37Z</time>
      </trkpt>
      <trkpt lat="46.07142" lon="7.3473">
        <ele>2954.3</ele>
        <time>2018-12-31T13:15:42Z</time>
      </trkpt>
      <trkpt lat="46.07158" lon="7.34733">
        <ele>2951.9</ele>
        <time>2018-12-31T13:15:47Z</time>
      </trkpt>
      <trkpt lat="46.07178" lon="7.34733">
        <ele>2950.3</ele>
        <time>2018-12-31T13:15:52Z</time>
      </trkpt>
      <trkpt lat="46.07203" lon="7.34734">
        <ele>2948.8</ele>
        <time>2018-12-31T13:15:57Z</time>
      </trkpt>
      <trkpt lat="46.07235" lon="7.34722">
        <ele>2944.3</ele>
        <time>2018-12-31T13:16:02Z</time>
      </trkpt>
      <trkpt lat="46.07276" lon="7.34732">
        <ele>2938.3</ele>
        <time>2018-12-31T13:16:07Z</time>
      </trkpt>
      <trkpt lat="46.07318" lon="7.34739">
        <ele>2931.4</ele>
        <time>2018-12-31T13:16:12Z</time>
      </trkpt>
      <trkpt lat="46.07349" lon="7.34738">
        <ele>2926.5</ele>
        <time>2018-12-31T13:16:17Z</time>
      </trkpt>
      <trkpt lat="46.07366" lon="7.34738">
        <ele>2917.4</ele>
        <time>2018-12-31T13:16:22Z</time>
      </trkpt>
      <trkpt lat="46.0739" lon="7.34733">
        <ele>2904.2</ele>
        <time>2018-12-31T13:16:32Z</time>
      </trkpt>
      <trkpt lat="46.07408" lon="7.34727">
        <ele>2904</ele>
        <time>2018-12-31T13:16:52Z</time>
      </trkpt>
      <trkpt lat="46.07425" lon="7.34724">
        <ele>2904</ele>
        <time>2018-12-31T13:17:02Z</time>
      </trkpt>
      <trkpt lat="46.07444" lon="7.34718">
        <ele>2902.7</ele>
        <time>2018-12-31T13:17:17Z</time>
      </trkpt>
      <trkpt lat="46.07461" lon="7.34707">
        <ele>2902</ele>
        <time>2018-12-31T13:17:32Z</time>
      </trkpt>
      <trkpt lat="46.07476" lon="7.34701">
        <ele>2904</ele>
        <time>2018-12-31T13:17:42Z</time>
      </trkpt>
      <trkpt lat="46.07493" lon="7.34693">
        <ele>2903.9</ele>
        <time>2018-12-31T13:17:52Z</time>
      </trkpt>
      <trkpt lat="46.07508" lon="7.3469">
        <ele>2903</ele>
        <time>2018-12-31T13:18:02Z</time>
      </trkpt>
      <trkpt lat="46.07521" lon="7.34682">
        <ele>2899.9</ele>
        <time>2018-12-31T13:19:07Z</time>
      </trkpt>
      <trkpt lat="46.07554" lon="7.34696">
        <ele>2896.5</ele>
        <time>2018-12-31T13:19:17Z</time>
      </trkpt>
      <trkpt lat="46.07582" lon="7.34717">
        <ele>2888.5</ele>
        <time>2018-12-31T13:19:22Z</time>
      </trkpt>
      <trkpt lat="46.07603" lon="7.34737">
        <ele>2883.5</ele>
        <time>2018-12-31T13:19:27Z</time>
      </trkpt>
      <trkpt lat="46.07629" lon="7.34722">
        <ele>2882.4</ele>
        <time>2018-12-31T13:19:32Z</time>
      </trkpt>
      <trkpt lat="46.07656" lon="7.34689">
        <ele>2880.5</ele>
        <time>2018-12-31T13:19:37Z</time>
      </trkpt>
      <trkpt lat="46.0768" lon="7.34642">
        <ele>2881.2</ele>
        <time>2018-12-31T13:19:42Z</time>
      </trkpt>
      <trkpt lat="46.07709" lon="7.34592">
        <ele>2874.3</ele>
        <time>2018-12-31T13:19:47Z</time>
      </trkpt>
      <trkpt lat="46.07732" lon="7.34559">
        <ele>2868.8</ele>
        <time>2018-12-31T13:19:52Z</time>
      </trkpt>
      <trkpt lat="46.07742" lon="7.34544">
        <ele>2865.2</ele>
        <time>2018-12-31T13:20:07Z</time>
      </trkpt>
      <trkpt lat="46.0776" lon="7.34528">
        <ele>2863</ele>
        <time>2018-12-31T13:20:22Z</time>
      </trkpt>
      <trkpt lat="46.07775" lon="7.34519">
        <ele>2861.6</ele>
        <time>2018-12-31T13:20:32Z</time>
      </trkpt>
      <trkpt lat="46.07794" lon="7.34522">
        <ele>2859.7</ele>
        <time>2018-12-31T13:20:42Z</time>
      </trkpt>
      <trkpt lat="46.07812" lon="7.3452">
        <ele>2856.5</ele>
        <time>2018-12-31T13:21:02Z</time>
      </trkpt>
      <trkpt lat="46.07828" lon="7.34518">
        <ele>2853.7</ele>
        <time>2018-12-31T13:21:12Z</time>
      </trkpt>
      <trkpt lat="46.0784" lon="7.34536">
        <ele>2852.3</ele>
        <time>2018-12-31T13:21:17Z</time>
      </trkpt>
      <trkpt lat="46.07867" lon="7.34537">
        <ele>2850</ele>
        <time>2018-12-31T13:21:27Z</time>
      </trkpt>
      <trkpt lat="46.07889" lon="7.34542">
        <ele>2821.3</ele>
        <time>2018-12-31T13:21:37Z</time>
      </trkpt>
      <trkpt lat="46.07914" lon="7.34526">
        <ele>2806.9</ele>
        <time>2018-12-31T13:22:02Z</time>
      </trkpt>
      <trkpt lat="46.0793" lon="7.34505">
        <ele>2800.3</ele>
        <time>2018-12-31T13:22:12Z</time>
      </trkpt>
      <trkpt lat="46.0793" lon="7.34477">
        <ele>2794.3</ele>
        <time>2018-12-31T13:22:17Z</time>
      </trkpt>
      <trkpt lat="46.07943" lon="7.34467">
        <ele>2787.5</ele>
        <time>2018-12-31T13:22:22Z</time>
      </trkpt>
      <trkpt lat="46.07951" lon="7.34443">
        <ele>2784.6</ele>
        <time>2018-12-31T13:22:27Z</time>
      </trkpt>
      <trkpt lat="46.07961" lon="7.34411">
        <ele>2781.7</ele>
        <time>2018-12-31T13:22:32Z</time>
      </trkpt>
      <trkpt lat="46.07973" lon="7.3439">
        <ele>2778.7</ele>
        <time>2018-12-31T13:22:37Z</time>
      </trkpt>
      <trkpt lat="46.07989" lon="7.34391">
        <ele>2776.2</ele>
        <time>2018-12-31T13:22:42Z</time>
      </trkpt>
      <trkpt lat="46.08006" lon="7.34395">
        <ele>2772.4</ele>
        <time>2018-12-31T13:22:47Z</time>
      </trkpt>
      <trkpt lat="46.08031" lon="7.34402">
        <ele>2769.9</ele>
        <time>2018-12-31T13:22:52Z</time>
      </trkpt>
      <trkpt lat="46.08053" lon="7.34405">
        <ele>2762.3</ele>
        <time>2018-12-31T13:22:57Z</time>
      </trkpt>
      <trkpt lat="46.08072" lon="7.34409">
        <ele>2757.6</ele>
        <time>2018-12-31T13:23:02Z</time>
      </trkpt>
      <trkpt lat="46.08093" lon="7.34418">
        <ele>2747.4</ele>
        <time>2018-12-31T13:23:12Z</time>
      </trkpt>
      <trkpt lat="46.08109" lon="7.34424">
        <ele>2743.9</ele>
        <time>2018-12-31T13:23:17Z</time>
      </trkpt>
      <trkpt lat="46.0814" lon="7.34429">
        <ele>2738.8</ele>
        <time>2018-12-31T13:23:27Z</time>
      </trkpt>
      <trkpt lat="46.08158" lon="7.34427">
        <ele>2737.9</ele>
        <time>2018-12-31T13:23:32Z</time>
      </trkpt>
      <trkpt lat="46.08175" lon="7.34435">
        <ele>2737.1</ele>
        <time>2018-12-31T13:23:37Z</time>
      </trkpt>
      <trkpt lat="46.08189" lon="7.34461">
        <ele>2733.9</ele>
        <time>2018-12-31T13:23:42Z</time>
      </trkpt>
      <trkpt lat="46.08206" lon="7.3447">
        <ele>2728.5</ele>
        <time>2018-12-31T13:23:47Z</time>
      </trkpt>
      <trkpt lat="46.08222" lon="7.34479">
        <ele>2725.5</ele>
        <time>2018-12-31T13:23:52Z</time>
      </trkpt>
      <trkpt lat="46.08235" lon="7.34496">
        <ele>2721.7</ele>
        <time>2018-12-31T13:23:57Z</time>
      </trkpt>
      <trkpt lat="46.08251" lon="7.34494">
        <ele>2718</ele>
        <time>2018-12-31T13:24:02Z</time>
      </trkpt>
      <trkpt lat="46.08269" lon="7.34511">
        <ele>2708.2</ele>
        <time>2018-12-31T13:24:37Z</time>
      </trkpt>
      <trkpt lat="46.08284" lon="7.34531">
        <ele>2704.2</ele>
        <time>2018-12-31T13:24:42Z</time>
      </trkpt>
      <trkpt lat="46.08309" lon="7.34564">
        <ele>2697.1</ele>
        <time>2018-12-31T13:24:47Z</time>
      </trkpt>
      <trkpt lat="46.08333" lon="7.34557">
        <ele>2695.6</ele>
        <time>2018-12-31T13:24:52Z</time>
      </trkpt>
      <trkpt lat="46.08349" lon="7.34549">
        <ele>2695.6</ele>
        <time>2018-12-31T13:24:57Z</time>
      </trkpt>
      <trkpt lat="46.08362" lon="7.34539">
        <ele>2695.6</ele>
        <time>2018-12-31T13:25:07Z</time>
      </trkpt>
      <trkpt lat="46.08377" lon="7.34527">
        <ele>2695.9</ele>
        <time>2018-12-31T13:25:27Z</time>
      </trkpt>
      <trkpt lat="46.0839" lon="7.34519">
        <ele>2695.7</ele>
        <time>2018-12-31T13:25:37Z</time>
      </trkpt>
      <trkpt lat="46.08404" lon="7.34508">
        <ele>2696.4</ele>
        <time>2018-12-31T13:25:47Z</time>
      </trkpt>
      <trkpt lat="46.08418" lon="7.34501">
        <ele>2696.3</ele>
        <time>2018-12-31T13:26:02Z</time>
      </trkpt>
      <trkpt lat="46.08431" lon="7.34495">
        <ele>2695.6</ele>
        <time>2018-12-31T13:26:32Z</time>
      </trkpt>
      <trkpt lat="46.08448" lon="7.34493">
        <ele>2695.6</ele>
        <time>2018-12-31T13:26:52Z</time>
      </trkpt>
      <trkpt lat="46.08462" lon="7.34493">
        <ele>2695.6</ele>
        <time>2018-12-31T13:27:17Z</time>
      </trkpt>
      <trkpt lat="46.08477" lon="7.34497">
        <ele>2695</ele>
        <time>2018-12-31T13:27:42Z</time>
      </trkpt>
      <trkpt lat="46.08497" lon="7.34486">
        <ele>2692.6</ele>
        <time>2018-12-31T13:27:52Z</time>
      </trkpt>
      <trkpt lat="46.08517" lon="7.34481">
        <ele>2689.2</ele>
        <time>2018-12-31T13:28:02Z</time>
      </trkpt>
      <trkpt lat="46.08533" lon="7.34469">
        <ele>2684.7</ele>
        <time>2018-12-31T13:28:07Z</time>
      </trkpt>
      <trkpt lat="46.08538" lon="7.34449">
        <ele>2680.5</ele>
        <time>2018-12-31T13:28:12Z</time>
      </trkpt>
      <trkpt lat="46.0857" lon="7.34437">
        <ele>2677.1</ele>
        <time>2018-12-31T13:28:17Z</time>
      </trkpt>
      <trkpt lat="46.08596" lon="7.34419">
        <ele>2672.8</ele>
        <time>2018-12-31T13:28:22Z</time>
      </trkpt>
      <trkpt lat="46.08613" lon="7.34401">
        <ele>2670.8</ele>
        <time>2018-12-31T13:28:27Z</time>
      </trkpt>
      <trkpt lat="46.08626" lon="7.34389">
        <ele>2669.7</ele>
        <time>2018-12-31T13:28:32Z</time>
      </trkpt>
      <trkpt lat="46.08637" lon="7.34373">
        <ele>2669.3</ele>
        <time>2018-12-31T13:28:37Z</time>
      </trkpt>
      <trkpt lat="46.08647" lon="7.34352">
        <ele>2668.5</ele>
        <time>2018-12-31T13:28:42Z</time>
      </trkpt>
      <trkpt lat="46.08674" lon="7.34337">
        <ele>2663.6</ele>
        <time>2018-12-31T13:28:52Z</time>
      </trkpt>
      <trkpt lat="46.08688" lon="7.34339">
        <ele>2659.4</ele>
        <time>2018-12-31T13:28:57Z</time>
      </trkpt>
      <trkpt lat="46.087" lon="7.3435">
        <ele>2655.3</ele>
        <time>2018-12-31T13:29:02Z</time>
      </trkpt>
      <trkpt lat="46.08714" lon="7.34337">
        <ele>2648.5</ele>
        <time>2018-12-31T13:29:12Z</time>
      </trkpt>
      <trkpt lat="46.0873" lon="7.34332">
        <ele>2644.6</ele>
        <time>2018-12-31T13:29:22Z</time>
      </trkpt>
      <trkpt lat="46.0873" lon="7.34364">
        <ele>2639.9</ele>
        <time>2018-12-31T13:29:32Z</time>
      </trkpt>
      <trkpt lat="46.08728" lon="7.34396">
        <ele>2633</ele>
        <time>2018-12-31T13:29:42Z</time>
      </trkpt>
      <trkpt lat="46.08723" lon="7.34417">
        <ele>2626.1</ele>
        <time>2018-12-31T13:30:17Z</time>
      </trkpt>
      <trkpt lat="46.08729" lon="7.34436">
        <ele>2624</ele>
        <time>2018-12-31T13:30:22Z</time>
      </trkpt>
      <trkpt lat="46.08746" lon="7.34444">
        <ele>2624</ele>
        <time>2018-12-31T13:30:27Z</time>
      </trkpt>
      <trkpt lat="46.08761" lon="7.34447">
        <ele>2619</ele>
        <time>2018-12-31T13:30:32Z</time>
      </trkpt>
      <trkpt lat="46.08773" lon="7.34474">
        <ele>2615.1</ele>
        <time>2018-12-31T13:30:37Z</time>
      </trkpt>
      <trkpt lat="46.08793" lon="7.34482">
        <ele>2611</ele>
        <time>2018-12-31T13:30:42Z</time>
      </trkpt>
      <trkpt lat="46.08818" lon="7.345">
        <ele>2606.8</ele>
        <time>2018-12-31T13:30:52Z</time>
      </trkpt>
      <trkpt lat="46.08828" lon="7.34484">
        <ele>2605.4</ele>
        <time>2018-12-31T13:30:57Z</time>
      </trkpt>
      <trkpt lat="46.08838" lon="7.34465">
        <ele>2601.9</ele>
        <time>2018-12-31T13:31:02Z</time>
      </trkpt>
      <trkpt lat="46.08847" lon="7.34439">
        <ele>2599</ele>
        <time>2018-12-31T13:31:07Z</time>
      </trkpt>
      <trkpt lat="46.08855" lon="7.34418">
        <ele>2594.2</ele>
        <time>2018-12-31T13:31:17Z</time>
      </trkpt>
      <trkpt lat="46.08859" lon="7.34384">
        <ele>2586.3</ele>
        <time>2018-12-31T13:31:47Z</time>
      </trkpt>
      <trkpt lat="46.08851" lon="7.34354">
        <ele>2584.4</ele>
        <time>2018-12-31T13:31:57Z</time>
      </trkpt>
      <trkpt lat="46.08868" lon="7.34365">
        <ele>2581.3</ele>
        <time>2018-12-31T13:32:07Z</time>
      </trkpt>
      <trkpt lat="46.08883" lon="7.34377">
        <ele>2575.9</ele>
        <time>2018-12-31T13:32:17Z</time>
      </trkpt>
      <trkpt lat="46.08904" lon="7.34394">
        <ele>2569.7</ele>
        <time>2018-12-31T13:32:27Z</time>
      </trkpt>
      <trkpt lat="46.08914" lon="7.34413">
        <ele>2566.9</ele>
        <time>2018-12-31T13:32:32Z</time>
      </trkpt>
      <trkpt lat="46.08934" lon="7.34447">
        <ele>2559.9</ele>
        <time>2018-12-31T13:32:42Z</time>
      </trkpt>
      <trkpt lat="46.08948" lon="7.34466">
        <ele>2555.3</ele>
        <time>2018-12-31T13:32:47Z</time>
      </trkpt>
      <trkpt lat="46.08966" lon="7.34478">
        <ele>2551.9</ele>
        <time>2018-12-31T13:32:52Z</time>
      </trkpt>
      <trkpt lat="46.08981" lon="7.34471">
        <ele>2546.7</ele>
        <time>2018-12-31T13:32:57Z</time>
      </trkpt>
      <trkpt lat="46.08994" lon="7.34473">
        <ele>2538.7</ele>
        <time>2018-12-31T13:33:07Z</time>
      </trkpt>
      <trkpt lat="46.09015" lon="7.34467">
        <ele>2533.1</ele>
        <time>2018-12-31T13:33:27Z</time>
      </trkpt>
      <trkpt lat="46.09029" lon="7.34461">
        <ele>2531.5</ele>
        <time>2018-12-31T13:33:32Z</time>
      </trkpt>
      <trkpt lat="46.09045" lon="7.34459">
        <ele>2530.1</ele>
        <time>2018-12-31T13:33:37Z</time>
      </trkpt>
      <trkpt lat="46.09067" lon="7.34453">
        <ele>2527.9</ele>
        <time>2018-12-31T13:33:42Z</time>
      </trkpt>
      <trkpt lat="46.09089" lon="7.3445">
        <ele>2524.8</ele>
        <time>2018-12-31T13:33:47Z</time>
      </trkpt>
      <trkpt lat="46.0911" lon="7.3445">
        <ele>2518.9</ele>
        <time>2018-12-31T13:33:52Z</time>
      </trkpt>
      <trkpt lat="46.09129" lon="7.34438">
        <ele>2512</ele>
        <time>2018-12-31T13:33:57Z</time>
      </trkpt>
      <trkpt lat="46.09148" lon="7.34428">
        <ele>2507.1</ele>
        <time>2018-12-31T13:34:02Z</time>
      </trkpt>
      <trkpt lat="46.09164" lon="7.34416">
        <ele>2502.4</ele>
        <time>2018-12-31T13:34:07Z</time>
      </trkpt>
      <trkpt lat="46.09186" lon="7.34407">
        <ele>2499.5</ele>
        <time>2018-12-31T13:34:12Z</time>
      </trkpt>
      <trkpt lat="46.09202" lon="7.34395">
        <ele>2497.5</ele>
        <time>2018-12-31T13:34:17Z</time>
      </trkpt>
      <trkpt lat="46.09215" lon="7.34385">
        <ele>2494.9</ele>
        <time>2018-12-31T13:34:22Z</time>
      </trkpt>
      <trkpt lat="46.09223" lon="7.34369">
        <ele>2489.7</ele>
        <time>2018-12-31T13:34:32Z</time>
      </trkpt>
      <trkpt lat="46.09235" lon="7.34379">
        <ele>2487.9</ele>
        <time>2018-12-31T13:34:42Z</time>
      </trkpt>
      <trkpt lat="46.09254" lon="7.34358">
        <ele>2487.5</ele>
        <time>2018-12-31T13:34:47Z</time>
      </trkpt>
      <trkpt lat="46.09259" lon="7.34338">
        <ele>2485.9</ele>
        <time>2018-12-31T13:34:52Z</time>
      </trkpt>
      <trkpt lat="46.0927" lon="7.34312">
        <ele>2481.3</ele>
        <time>2018-12-31T13:35:02Z</time>
      </trkpt>
      <trkpt lat="46.09282" lon="7.343">
        <ele>2479.4</ele>
        <time>2018-12-31T13:35:07Z</time>
      </trkpt>
      <trkpt lat="46.09297" lon="7.3429">
        <ele>2478</ele>
        <time>2018-12-31T13:35:12Z</time>
      </trkpt>
      <trkpt lat="46.09316" lon="7.3428">
        <ele>2477.8</ele>
        <time>2018-12-31T13:35:17Z</time>
      </trkpt>
      <trkpt lat="46.09335" lon="7.3427">
        <ele>2477.5</ele>
        <time>2018-12-31T13:35:22Z</time>
      </trkpt>
      <trkpt lat="46.09353" lon="7.34265">
        <ele>2475.2</ele>
        <time>2018-12-31T13:35:27Z</time>
      </trkpt>
      <trkpt lat="46.09367" lon="7.34287">
        <ele>2467.8</ele>
        <time>2018-12-31T13:36:02Z</time>
      </trkpt>
      <trkpt lat="46.09388" lon="7.34291">
        <ele>2460.9</ele>
        <time>2018-12-31T13:36:12Z</time>
      </trkpt>
      <trkpt lat="46.09399" lon="7.34276">
        <ele>2455.8</ele>
        <time>2018-12-31T13:36:17Z</time>
      </trkpt>
      <trkpt lat="46.09399" lon="7.34247">
        <ele>2453.7</ele>
        <time>2018-12-31T13:36:22Z</time>
      </trkpt>
      <trkpt lat="46.09405" lon="7.34214">
        <ele>2448.7</ele>
        <time>2018-12-31T13:36:32Z</time>
      </trkpt>
      <trkpt lat="46.09413" lon="7.34188">
        <ele>2442.5</ele>
        <time>2018-12-31T13:36:42Z</time>
      </trkpt>
      <trkpt lat="46.09421" lon="7.3417">
        <ele>2440.7</ele>
        <time>2018-12-31T13:36:47Z</time>
      </trkpt>
      <trkpt lat="46.09435" lon="7.34145">
        <ele>2434.5</ele>
        <time>2018-12-31T13:36:57Z</time>
      </trkpt>
      <trkpt lat="46.09439" lon="7.34174">
        <ele>2429.8</ele>
        <time>2018-12-31T13:37:07Z</time>
      </trkpt>
      <trkpt lat="46.09467" lon="7.34167">
        <ele>2423.7</ele>
        <time>2018-12-31T13:37:17Z</time>
      </trkpt>
      <trkpt lat="46.09482" lon="7.34159">
        <ele>2419.6</ele>
        <time>2018-12-31T13:37:22Z</time>
      </trkpt>
      <trkpt lat="46.09491" lon="7.34135">
        <ele>2410.8</ele>
        <time>2018-12-31T13:37:37Z</time>
      </trkpt>
      <trkpt lat="46.09508" lon="7.34117">
        <ele>2408.9</ele>
        <time>2018-12-31T13:37:42Z</time>
      </trkpt>
      <trkpt lat="46.09522" lon="7.34104">
        <ele>2406</ele>
        <time>2018-12-31T13:37:47Z</time>
      </trkpt>
      <trkpt lat="46.09546" lon="7.34107">
        <ele>2402.5</ele>
        <time>2018-12-31T13:37:52Z</time>
      </trkpt>
      <trkpt lat="46.09564" lon="7.34108">
        <ele>2399.7</ele>
        <time>2018-12-31T13:37:57Z</time>
      </trkpt>
      <trkpt lat="46.0958" lon="7.34112">
        <ele>2397.4</ele>
        <time>2018-12-31T13:38:12Z</time>
      </trkpt>
      <trkpt lat="46.09596" lon="7.34114">
        <ele>2396.6</ele>
        <time>2018-12-31T13:38:32Z</time>
      </trkpt>
      <trkpt lat="46.09611" lon="7.34116">
        <ele>2396.5</ele>
        <time>2018-12-31T13:38:52Z</time>
      </trkpt>
      <trkpt lat="46.09624" lon="7.34108">
        <ele>2396.4</ele>
        <time>2018-12-31T13:39:07Z</time>
      </trkpt>
      <trkpt lat="46.09635" lon="7.34098">
        <ele>2396.5</ele>
        <time>2018-12-31T13:39:17Z</time>
      </trkpt>
      <trkpt lat="46.09625" lon="7.3408">
        <ele>2396.5</ele>
        <time>2018-12-31T13:40:12Z</time>
      </trkpt>
      <trkpt lat="46.0962" lon="7.34062">
        <ele>2396.5</ele>
        <time>2018-12-31T13:40:32Z</time>
      </trkpt>
      <trkpt lat="46.09606" lon="7.34057">
        <ele>2396.6</ele>
        <time>2018-12-31T13:44:07Z</time>
      </trkpt>
      <trkpt lat="46.09604" lon="7.34036">
        <ele>2398.3</ele>
        <time>2018-12-31T13:44:27Z</time>
      </trkpt>
      <trkpt lat="46.09599" lon="7.34054">
        <ele>2396.9</ele>
        <time>2018-12-31T13:44:52Z</time>
      </trkpt>
      <trkpt lat="46.09612" lon="7.34072">
        <ele>2397.2</ele>
        <time>2018-12-31T13:45:47Z</time>
      </trkpt>
      <trkpt lat="46.09598" lon="7.34085">
        <ele>2400.3</ele>
        <time>2018-12-31T13:47:07Z</time>
      </trkpt>
      <trkpt lat="46.09607" lon="7.34067">
        <ele>2397</ele>
        <time>2018-12-31T13:47:47Z</time>
      </trkpt>
      <trkpt lat="46.09631" lon="7.34076">
        <ele>2396.5</ele>
        <time>2018-12-31T13:47:57Z</time>
      </trkpt>
      <trkpt lat="46.09649" lon="7.34084">
        <ele>2396.5</ele>
        <time>2018-12-31T13:48:32Z</time>
      </trkpt>
      <trkpt lat="46.09663" lon="7.34088">
        <ele>2395.2</ele>
        <time>2018-12-31T13:48:42Z</time>
      </trkpt>
      <trkpt lat="46.09646" lon="7.3408">
        <ele>2396.5</ele>
        <time>2018-12-31T13:50:22Z</time>
      </trkpt>
      <trkpt lat="46.09635" lon="7.34066">
        <ele>2374.9</ele>
        <time>2018-12-31T13:50:52Z</time>
      </trkpt>
      <trkpt lat="46.10432" lon="7.33871">
        <ele>2414.1</ele>
        <time>2018-12-31T14:29:30Z</time>
      </trkpt>
      <trkpt lat="46.10427" lon="7.33818">
        <ele>2434.1</ele>
        <time>2018-12-31T14:29:36Z</time>
      </trkpt>
      <trkpt lat="46.10435" lon="7.33802">
        <ele>2425.3</ele>
        <time>2018-12-31T14:29:46Z</time>
      </trkpt>
      <trkpt lat="46.10445" lon="7.3382">
        <ele>2434</ele>
        <time>2018-12-31T14:30:06Z</time>
      </trkpt>
      <trkpt lat="46.1046" lon="7.33818">
        <ele>2440</ele>
        <time>2018-12-31T14:30:56Z</time>
      </trkpt>
      <trkpt lat="46.10473" lon="7.33805">
        <ele>2440.5</ele>
        <time>2018-12-31T14:31:16Z</time>
      </trkpt>
      <trkpt lat="46.10485" lon="7.33792">
        <ele>2446.7</ele>
        <time>2018-12-31T14:31:36Z</time>
      </trkpt>
      <trkpt lat="46.10496" lon="7.33779">
        <ele>2449.4</ele>
        <time>2018-12-31T14:31:56Z</time>
      </trkpt>
      <trkpt lat="46.10507" lon="7.33765">
        <ele>2449.9</ele>
        <time>2018-12-31T14:32:21Z</time>
      </trkpt>
      <trkpt lat="46.10517" lon="7.33748">
        <ele>2452.3</ele>
        <time>2018-12-31T14:32:41Z</time>
      </trkpt>
      <trkpt lat="46.10525" lon="7.33731">
        <ele>2452.3</ele>
        <time>2018-12-31T14:33:01Z</time>
      </trkpt>
      <trkpt lat="46.1054" lon="7.33715">
        <ele>2453.8</ele>
        <time>2018-12-31T14:33:21Z</time>
      </trkpt>
      <trkpt lat="46.10552" lon="7.33702">
        <ele>2457.8</ele>
        <time>2018-12-31T14:33:41Z</time>
      </trkpt>
      <trkpt lat="46.10563" lon="7.33682">
        <ele>2457.9</ele>
        <time>2018-12-31T14:34:01Z</time>
      </trkpt>
      <trkpt lat="46.10576" lon="7.33697">
        <ele>2461.3</ele>
        <time>2018-12-31T14:34:16Z</time>
      </trkpt>
      <trkpt lat="46.10584" lon="7.33671">
        <ele>2461.2</ele>
        <time>2018-12-31T14:34:36Z</time>
      </trkpt>
      <trkpt lat="46.10592" lon="7.33651">
        <ele>2464.3</ele>
        <time>2018-12-31T14:34:51Z</time>
      </trkpt>
      <trkpt lat="46.106" lon="7.33634">
        <ele>2467.7</ele>
        <time>2018-12-31T14:35:06Z</time>
      </trkpt>
      <trkpt lat="46.10608" lon="7.33616">
        <ele>2470.4</ele>
        <time>2018-12-31T14:35:26Z</time>
      </trkpt>
      <trkpt lat="46.10619" lon="7.33602">
        <ele>2474.7</ele>
        <time>2018-12-31T14:35:46Z</time>
      </trkpt>
      <trkpt lat="46.10636" lon="7.33599">
        <ele>2481.1</ele>
        <time>2018-12-31T14:36:21Z</time>
      </trkpt>
      <trkpt lat="46.10639" lon="7.33575">
        <ele>2482.4</ele>
        <time>2018-12-31T14:36:41Z</time>
      </trkpt>
      <trkpt lat="46.10646" lon="7.33553">
        <ele>2488.4</ele>
        <time>2018-12-31T14:37:06Z</time>
      </trkpt>
      <trkpt lat="46.10661" lon="7.33552">
        <ele>2496.2</ele>
        <time>2018-12-31T14:38:06Z</time>
      </trkpt>
      <trkpt lat="46.10671" lon="7.33538">
        <ele>2505.4</ele>
        <time>2018-12-31T14:38:36Z</time>
      </trkpt>
      <trkpt lat="46.10679" lon="7.33518">
        <ele>2508.7</ele>
        <time>2018-12-31T14:39:06Z</time>
      </trkpt>
      <trkpt lat="46.10687" lon="7.33496">
        <ele>2512</ele>
        <time>2018-12-31T14:39:36Z</time>
      </trkpt>
      <trkpt lat="46.10698" lon="7.33479">
        <ele>2517.1</ele>
        <time>2018-12-31T14:40:01Z</time>
      </trkpt>
      <trkpt lat="46.10703" lon="7.33459">
        <ele>2523.6</ele>
        <time>2018-12-31T14:40:26Z</time>
      </trkpt>
      <trkpt lat="46.10707" lon="7.3344">
        <ele>2530.8</ele>
        <time>2018-12-31T14:40:46Z</time>
      </trkpt>
      <trkpt lat="46.1071" lon="7.33421">
        <ele>2532.5</ele>
        <time>2018-12-31T14:41:11Z</time>
      </trkpt>
      <trkpt lat="46.10714" lon="7.3344">
        <ele>2534.1</ele>
        <time>2018-12-31T14:41:46Z</time>
      </trkpt>
      <trkpt lat="46.10718" lon="7.33461">
        <ele>2533.5</ele>
        <time>2018-12-31T14:42:11Z</time>
      </trkpt>
      <trkpt lat="46.10726" lon="7.33481">
        <ele>2538.2</ele>
        <time>2018-12-31T14:42:36Z</time>
      </trkpt>
      <trkpt lat="46.10734" lon="7.33497">
        <ele>2544.5</ele>
        <time>2018-12-31T14:43:06Z</time>
      </trkpt>
      <trkpt lat="46.10745" lon="7.3348">
        <ele>2553.3</ele>
        <time>2018-12-31T14:43:36Z</time>
      </trkpt>
      <trkpt lat="46.10751" lon="7.33463">
        <ele>2557.6</ele>
        <time>2018-12-31T14:44:01Z</time>
      </trkpt>
      <trkpt lat="46.10757" lon="7.33444">
        <ele>2559.9</ele>
        <time>2018-12-31T14:44:21Z</time>
      </trkpt>
      <trkpt lat="46.10755" lon="7.33424">
        <ele>2559.6</ele>
        <time>2018-12-31T14:44:46Z</time>
      </trkpt>
      <trkpt lat="46.1077" lon="7.33424">
        <ele>2564.4</ele>
        <time>2018-12-31T14:45:21Z</time>
      </trkpt>
      <trkpt lat="46.10785" lon="7.33418">
        <ele>2570.8</ele>
        <time>2018-12-31T14:45:41Z</time>
      </trkpt>
      <trkpt lat="46.1079" lon="7.33397">
        <ele>2569.5</ele>
        <time>2018-12-31T14:46:06Z</time>
      </trkpt>
      <trkpt lat="46.10803" lon="7.33389">
        <ele>2568.1</ele>
        <time>2018-12-31T14:48:06Z</time>
      </trkpt>
      <trkpt lat="46.10816" lon="7.33395">
        <ele>2566.2</ele>
        <time>2018-12-31T14:48:26Z</time>
      </trkpt>
      <trkpt lat="46.1082" lon="7.33416">
        <ele>2572.9</ele>
        <time>2018-12-31T14:49:01Z</time>
      </trkpt>
      <trkpt lat="46.10834" lon="7.33433">
        <ele>2568.6</ele>
        <time>2018-12-31T14:54:43Z</time>
      </trkpt>
      <trkpt lat="46.10844" lon="7.33466">
        <ele>2568.5</ele>
        <time>2018-12-31T14:54:53Z</time>
      </trkpt>
      <trkpt lat="46.10853" lon="7.33492">
        <ele>2568.5</ele>
        <time>2018-12-31T14:54:58Z</time>
      </trkpt>
      <trkpt lat="46.10859" lon="7.33511">
        <ele>2569.8</ele>
        <time>2018-12-31T14:55:03Z</time>
      </trkpt>
      <trkpt lat="46.10864" lon="7.33539">
        <ele>2569.6</ele>
        <time>2018-12-31T14:55:18Z</time>
      </trkpt>
      <trkpt lat="46.1087" lon="7.33569">
        <ele>2572.9</ele>
        <time>2018-12-31T14:55:28Z</time>
      </trkpt>
      <trkpt lat="46.10885" lon="7.33585">
        <ele>2572.7</ele>
        <time>2018-12-31T14:55:33Z</time>
      </trkpt>
      <trkpt lat="46.10901" lon="7.33581">
        <ele>2569.2</ele>
        <time>2018-12-31T14:55:48Z</time>
      </trkpt>
      <trkpt lat="46.10914" lon="7.33594">
        <ele>2569.5</ele>
        <time>2018-12-31T14:56:03Z</time>
      </trkpt>
      <trkpt lat="46.10932" lon="7.33602">
        <ele>2572.2</ele>
        <time>2018-12-31T14:56:13Z</time>
      </trkpt>
      <trkpt lat="46.10946" lon="7.33606">
        <ele>2575.8</ele>
        <time>2018-12-31T14:56:58Z</time>
      </trkpt>
      <trkpt lat="46.10978" lon="7.33593">
        <ele>2568.4</ele>
        <time>2018-12-31T14:57:08Z</time>
      </trkpt>
      <trkpt lat="46.10994" lon="7.33572">
        <ele>2567.9</ele>
        <time>2018-12-31T14:57:13Z</time>
      </trkpt>
      <trkpt lat="46.1101" lon="7.33556">
        <ele>2567.9</ele>
        <time>2018-12-31T14:57:18Z</time>
      </trkpt>
      <trkpt lat="46.11028" lon="7.33532">
        <ele>2564.8</ele>
        <time>2018-12-31T14:57:28Z</time>
      </trkpt>
      <trkpt lat="46.1104" lon="7.33512">
        <ele>2561.6</ele>
        <time>2018-12-31T14:57:33Z</time>
      </trkpt>
      <trkpt lat="46.11053" lon="7.33491">
        <ele>2558.5</ele>
        <time>2018-12-31T14:57:38Z</time>
      </trkpt>
      <trkpt lat="46.11066" lon="7.33479">
        <ele>2554.3</ele>
        <time>2018-12-31T14:57:48Z</time>
      </trkpt>
      <trkpt lat="46.11043" lon="7.33461">
        <ele>2539.5</ele>
        <time>2018-12-31T14:58:23Z</time>
      </trkpt>
      <trkpt lat="46.1103" lon="7.33453">
        <ele>2530.9</ele>
        <time>2018-12-31T14:58:28Z</time>
      </trkpt>
      <trkpt lat="46.11028" lon="7.33431">
        <ele>2525.3</ele>
        <time>2018-12-31T14:58:33Z</time>
      </trkpt>
      <trkpt lat="46.11043" lon="7.33408">
        <ele>2524.8</ele>
        <time>2018-12-31T14:58:43Z</time>
      </trkpt>
      <trkpt lat="46.11034" lon="7.33392">
        <ele>2514.4</ele>
        <time>2018-12-31T14:58:48Z</time>
      </trkpt>
      <trkpt lat="46.11035" lon="7.33371">
        <ele>2509.6</ele>
        <time>2018-12-31T14:59:18Z</time>
      </trkpt>
      <trkpt lat="46.11038" lon="7.33349">
        <ele>2501.9</ele>
        <time>2018-12-31T14:59:28Z</time>
      </trkpt>
      <trkpt lat="46.1104" lon="7.3332">
        <ele>2494.6</ele>
        <time>2018-12-31T14:59:38Z</time>
      </trkpt>
      <trkpt lat="46.11048" lon="7.3329">
        <ele>2471.3</ele>
        <time>2018-12-31T14:59:53Z</time>
      </trkpt>
      <trkpt lat="46.11058" lon="7.33268">
        <ele>2459.2</ele>
        <time>2018-12-31T15:00:28Z</time>
      </trkpt>
      <trkpt lat="46.11055" lon="7.33246">
        <ele>2451.1</ele>
        <time>2018-12-31T15:00:38Z</time>
      </trkpt>
      <trkpt lat="46.11057" lon="7.33213">
        <ele>2438.2</ele>
        <time>2018-12-31T15:00:53Z</time>
      </trkpt>
      <trkpt lat="46.11075" lon="7.33196">
        <ele>2430.8</ele>
        <time>2018-12-31T15:01:08Z</time>
      </trkpt>
      <trkpt lat="46.11099" lon="7.3317">
        <ele>2421.9</ele>
        <time>2018-12-31T15:01:18Z</time>
      </trkpt>
      <trkpt lat="46.11085" lon="7.33139">
        <ele>2418.7</ele>
        <time>2018-12-31T15:01:28Z</time>
      </trkpt>
      <trkpt lat="46.11089" lon="7.33102">
        <ele>2407.6</ele>
        <time>2018-12-31T15:01:38Z</time>
      </trkpt>
      <trkpt lat="46.11092" lon="7.33082">
        <ele>2406.2</ele>
        <time>2018-12-31T15:01:58Z</time>
      </trkpt>
      <trkpt lat="46.11089" lon="7.33051">
        <ele>2405.3</ele>
        <time>2018-12-31T15:02:03Z</time>
      </trkpt>
      <trkpt lat="46.11109" lon="7.33049">
        <ele>2398.3</ele>
        <time>2018-12-31T15:02:18Z</time>
      </trkpt>
      <trkpt lat="46.11141" lon="7.33043">
        <ele>2392.6</ele>
        <time>2018-12-31T15:02:28Z</time>
      </trkpt>
      <trkpt lat="46.11165" lon="7.33039">
        <ele>2381.6</ele>
        <time>2018-12-31T15:02:58Z</time>
      </trkpt>
      <trkpt lat="46.1118" lon="7.33018">
        <ele>2370.4</ele>
        <time>2018-12-31T15:03:08Z</time>
      </trkpt>
      <trkpt lat="46.11196" lon="7.33004">
        <ele>2356.8</ele>
        <time>2018-12-31T15:03:18Z</time>
      </trkpt>
      <trkpt lat="46.11205" lon="7.32989">
        <ele>2357.6</ele>
        <time>2018-12-31T15:03:23Z</time>
      </trkpt>
      <trkpt lat="46.11215" lon="7.32963">
        <ele>2343.8</ele>
        <time>2018-12-31T15:03:33Z</time>
      </trkpt>
      <trkpt lat="46.11229" lon="7.32961">
        <ele>2326.8</ele>
        <time>2018-12-31T15:03:38Z</time>
      </trkpt>
      <trkpt lat="46.11245" lon="7.32941">
        <ele>2314.4</ele>
        <time>2018-12-31T15:04:03Z</time>
      </trkpt>
      <trkpt lat="46.11265" lon="7.32933">
        <ele>2314.8</ele>
        <time>2018-12-31T15:04:13Z</time>
      </trkpt>
      <trkpt lat="46.11266" lon="7.32907">
        <ele>2292.6</ele>
        <time>2018-12-31T15:04:23Z</time>
      </trkpt>
      <trkpt lat="46.11284" lon="7.32892">
        <ele>2281.3</ele>
        <time>2018-12-31T15:05:03Z</time>
      </trkpt>
      <trkpt lat="46.11316" lon="7.32882">
        <ele>2275</ele>
        <time>2018-12-31T15:05:13Z</time>
      </trkpt>
      <trkpt lat="46.11326" lon="7.32865">
        <ele>2276.9</ele>
        <time>2018-12-31T15:05:18Z</time>
      </trkpt>
      <trkpt lat="46.11334" lon="7.32848">
        <ele>2259.1</ele>
        <time>2018-12-31T15:05:23Z</time>
      </trkpt>
      <trkpt lat="46.1134" lon="7.3283">
        <ele>2254.2</ele>
        <time>2018-12-31T15:05:28Z</time>
      </trkpt>
      <trkpt lat="46.11357" lon="7.32819">
        <ele>2251.2</ele>
        <time>2018-12-31T15:05:33Z</time>
      </trkpt>
      <trkpt lat="46.11362" lon="7.32795">
        <ele>2247.8</ele>
        <time>2018-12-31T15:05:43Z</time>
      </trkpt>
      <trkpt lat="46.11377" lon="7.32789">
        <ele>2245.4</ele>
        <time>2018-12-31T15:05:48Z</time>
      </trkpt>
      <trkpt lat="46.11379" lon="7.32768">
        <ele>2242.3</ele>
        <time>2018-12-31T15:05:53Z</time>
      </trkpt>
      <trkpt lat="46.11383" lon="7.32738">
        <ele>2237.7</ele>
        <time>2018-12-31T15:05:58Z</time>
      </trkpt>
      <trkpt lat="46.11403" lon="7.32724">
        <ele>2233</ele>
        <time>2018-12-31T15:06:03Z</time>
      </trkpt>
      <trkpt lat="46.11427" lon="7.32708">
        <ele>2230.8</ele>
        <time>2018-12-31T15:06:08Z</time>
      </trkpt>
      <trkpt lat="46.11426" lon="7.32685">
        <ele>2226.4</ele>
        <time>2018-12-31T15:06:13Z</time>
      </trkpt>
      <trkpt lat="46.11437" lon="7.32665">
        <ele>2220.2</ele>
        <time>2018-12-31T15:06:18Z</time>
      </trkpt>
      <trkpt lat="46.1145" lon="7.32642">
        <ele>2217</ele>
        <time>2018-12-31T15:06:23Z</time>
      </trkpt>
      <trkpt lat="46.11442" lon="7.32616">
        <ele>2212.1</ele>
        <time>2018-12-31T15:06:28Z</time>
      </trkpt>
      <trkpt lat="46.11447" lon="7.32579">
        <ele>2209.3</ele>
        <time>2018-12-31T15:06:33Z</time>
      </trkpt>
      <trkpt lat="46.11438" lon="7.32559">
        <ele>2198</ele>
        <time>2018-12-31T15:07:08Z</time>
      </trkpt>
      <trkpt lat="46.1144" lon="7.32531">
        <ele>2189.4</ele>
        <time>2018-12-31T15:07:18Z</time>
      </trkpt>
      <trkpt lat="46.11447" lon="7.32513">
        <ele>2183.4</ele>
        <time>2018-12-31T15:07:28Z</time>
      </trkpt>
      <trkpt lat="46.11463" lon="7.32511">
        <ele>2177.4</ele>
        <time>2018-12-31T15:07:53Z</time>
      </trkpt>
      <trkpt lat="46.11473" lon="7.32497">
        <ele>2173.1</ele>
        <time>2018-12-31T15:08:08Z</time>
      </trkpt>
      <trkpt lat="46.1147" lon="7.32463">
        <ele>2160.5</ele>
        <time>2018-12-31T15:08:18Z</time>
      </trkpt>
      <trkpt lat="46.11475" lon="7.32442">
        <ele>2149.7</ele>
        <time>2018-12-31T15:08:58Z</time>
      </trkpt>
      <trkpt lat="46.11486" lon="7.32431">
        <ele>2136.5</ele>
        <time>2018-12-31T15:09:38Z</time>
      </trkpt>
      <trkpt lat="46.11503" lon="7.32421">
        <ele>2123</ele>
        <time>2018-12-31T15:10:03Z</time>
      </trkpt>
      <trkpt lat="46.11498" lon="7.32399">
        <ele>2115.2</ele>
        <time>2018-12-31T15:10:13Z</time>
      </trkpt>
      <trkpt lat="46.11488" lon="7.32382">
        <ele>2115.4</ele>
        <time>2018-12-31T15:10:23Z</time>
      </trkpt>
      <trkpt lat="46.11487" lon="7.3236">
        <ele>2109.6</ele>
        <time>2018-12-31T15:12:08Z</time>
      </trkpt>
      <trkpt lat="46.11486" lon="7.32332">
        <ele>2104.4</ele>
        <time>2018-12-31T15:12:38Z</time>
      </trkpt>
      <trkpt lat="46.11508" lon="7.32347">
        <ele>2098</ele>
        <time>2018-12-31T15:12:53Z</time>
      </trkpt>
      <trkpt lat="46.11536" lon="7.32346">
        <ele>2094.9</ele>
        <time>2018-12-31T15:12:58Z</time>
      </trkpt>
      <trkpt lat="46.11561" lon="7.32335">
        <ele>2090.8</ele>
        <time>2018-12-31T15:13:03Z</time>
      </trkpt>
      <trkpt lat="46.11581" lon="7.32328">
        <ele>2089.5</ele>
        <time>2018-12-31T15:13:08Z</time>
      </trkpt>
      <trkpt lat="46.11604" lon="7.32321">
        <ele>2088</ele>
        <time>2018-12-31T15:13:13Z</time>
      </trkpt>
      <trkpt lat="46.11631" lon="7.32304">
        <ele>2087.7</ele>
        <time>2018-12-31T15:13:18Z</time>
      </trkpt>
      <trkpt lat="46.11653" lon="7.3229">
        <ele>2081.7</ele>
        <time>2018-12-31T15:13:23Z</time>
      </trkpt>
      <trkpt lat="46.11687" lon="7.32267">
        <ele>2072.2</ele>
        <time>2018-12-31T15:13:28Z</time>
      </trkpt>
      <trkpt lat="46.11712" lon="7.32241">
        <ele>2069.2</ele>
        <time>2018-12-31T15:13:33Z</time>
      </trkpt>
      <trkpt lat="46.11745" lon="7.32218">
        <ele>2072</ele>
        <time>2018-12-31T15:13:38Z</time>
      </trkpt>
      <trkpt lat="46.11772" lon="7.32206">
        <ele>2072.9</ele>
        <time>2018-12-31T15:13:43Z</time>
      </trkpt>
      <trkpt lat="46.1179" lon="7.32216">
        <ele>2072.9</ele>
        <time>2018-12-31T15:13:48Z</time>
      </trkpt>
      <trkpt lat="46.11811" lon="7.32195">
        <ele>2069.1</ele>
        <time>2018-12-31T15:13:58Z</time>
      </trkpt>
      <trkpt lat="46.11798" lon="7.32193">
        <ele>2064.6</ele>
        <time>2018-12-31T15:14:03Z</time>
      </trkpt>
      <trkpt lat="46.1178" lon="7.32191">
        <ele>2060.7</ele>
        <time>2018-12-31T15:14:08Z</time>
      </trkpt>
      <trkpt lat="46.11757" lon="7.32202">
        <ele>2056.7</ele>
        <time>2018-12-31T15:14:13Z</time>
      </trkpt>
      <trkpt lat="46.1174" lon="7.32207">
        <ele>2053.6</ele>
        <time>2018-12-31T15:14:18Z</time>
      </trkpt>
      <trkpt lat="46.11715" lon="7.32209">
        <ele>2052.4</ele>
        <time>2018-12-31T15:14:23Z</time>
      </trkpt>
      <trkpt lat="46.11685" lon="7.3222">
        <ele>2052</ele>
        <time>2018-12-31T15:14:28Z</time>
      </trkpt>
      <trkpt lat="46.11649" lon="7.32233">
        <ele>2049</ele>
        <time>2018-12-31T15:14:33Z</time>
      </trkpt>
      <trkpt lat="46.11611" lon="7.32228">
        <ele>2042.3</ele>
        <time>2018-12-31T15:14:38Z</time>
      </trkpt>
      <trkpt lat="46.11584" lon="7.32229">
        <ele>2035.4</ele>
        <time>2018-12-31T15:14:43Z</time>
      </trkpt>
      <trkpt lat="46.11563" lon="7.32225">
        <ele>2033.3</ele>
        <time>2018-12-31T15:14:48Z</time>
      </trkpt>
      <trkpt lat="46.11577" lon="7.32213">
        <ele>2031.8</ele>
        <time>2018-12-31T15:15:13Z</time>
      </trkpt>
      <trkpt lat="46.11628" lon="7.32195">
        <ele>2024.2</ele>
        <time>2018-12-31T15:15:23Z</time>
      </trkpt>
      <trkpt lat="46.11655" lon="7.32173">
        <ele>2023.5</ele>
        <time>2018-12-31T15:15:28Z</time>
      </trkpt>
      <trkpt lat="46.11679" lon="7.3215">
        <ele>2023.4</ele>
        <time>2018-12-31T15:15:33Z</time>
      </trkpt>
      <trkpt lat="46.11708" lon="7.32133">
        <ele>2021</ele>
        <time>2018-12-31T15:15:38Z</time>
      </trkpt>
      <trkpt lat="46.11738" lon="7.32116">
        <ele>2016.2</ele>
        <time>2018-12-31T15:15:43Z</time>
      </trkpt>
      <trkpt lat="46.11758" lon="7.32097">
        <ele>2009.9</ele>
        <time>2018-12-31T15:15:48Z</time>
      </trkpt>
      <trkpt lat="46.11779" lon="7.32075">
        <ele>2003</ele>
        <time>2018-12-31T15:15:53Z</time>
      </trkpt>
      <trkpt lat="46.11806" lon="7.32089">
        <ele>2001</ele>
        <time>2018-12-31T15:15:58Z</time>
      </trkpt>
      <trkpt lat="46.11826" lon="7.32098">
        <ele>1998.5</ele>
        <time>2018-12-31T15:16:03Z</time>
      </trkpt>
      <trkpt lat="46.11852" lon="7.32093">
        <ele>1994.3</ele>
        <time>2018-12-31T15:16:08Z</time>
      </trkpt>
      <trkpt lat="46.11879" lon="7.32088">
        <ele>1992.6</ele>
        <time>2018-12-31T15:16:13Z</time>
      </trkpt>
      <trkpt lat="46.11912" lon="7.32076">
        <ele>1996.9</ele>
        <time>2018-12-31T15:16:18Z</time>
      </trkpt>
      <trkpt lat="46.11939" lon="7.32062">
        <ele>2002.6</ele>
        <time>2018-12-31T15:16:23Z</time>
      </trkpt>
      <trkpt lat="46.1197" lon="7.32056">
        <ele>2004.4</ele>
        <time>2018-12-31T15:16:28Z</time>
      </trkpt>
      <trkpt lat="46.11992" lon="7.32049">
        <ele>2001</ele>
        <time>2018-12-31T15:16:33Z</time>
      </trkpt>
      <trkpt lat="46.12009" lon="7.32042">
        <ele>1994.2</ele>
        <time>2018-12-31T15:16:43Z</time>
      </trkpt>
      <trkpt lat="46.12001" lon="7.32025">
        <ele>1977</ele>
        <time>2018-12-31T15:17:03Z</time>
      </trkpt>
      <trkpt lat="46.11986" lon="7.32022">
        <ele>1975.4</ele>
        <time>2018-12-31T15:17:08Z</time>
      </trkpt>
      <trkpt lat="46.11963" lon="7.32019">
        <ele>1966</ele>
        <time>2018-12-31T15:17:18Z</time>
      </trkpt>
      <trkpt lat="46.11942" lon="7.32019">
        <ele>1963.3</ele>
        <time>2018-12-31T15:17:23Z</time>
      </trkpt>
      <trkpt lat="46.11913" lon="7.32028">
        <ele>1969.4</ele>
        <time>2018-12-31T15:17:28Z</time>
      </trkpt>
      <trkpt lat="46.11882" lon="7.3202">
        <ele>1966.1</ele>
        <time>2018-12-31T15:17:33Z</time>
      </trkpt>
      <trkpt lat="46.11847" lon="7.32006">
        <ele>1957.7</ele>
        <time>2018-12-31T15:17:38Z</time>
      </trkpt>
      <trkpt lat="46.11822" lon="7.32011">
        <ele>1946.5</ele>
        <time>2018-12-31T15:17:43Z</time>
      </trkpt>
      <trkpt lat="46.118" lon="7.32014">
        <ele>1944.5</ele>
        <time>2018-12-31T15:17:48Z</time>
      </trkpt>
      <trkpt lat="46.1178" lon="7.32004">
        <ele>1946.3</ele>
        <time>2018-12-31T15:17:53Z</time>
      </trkpt>
      <trkpt lat="46.11764" lon="7.31995">
        <ele>1949.3</ele>
        <time>2018-12-31T15:17:58Z</time>
      </trkpt>
      <trkpt lat="46.11745" lon="7.31976">
        <ele>1947</ele>
        <time>2018-12-31T15:18:23Z</time>
      </trkpt>
      <trkpt lat="46.11754" lon="7.31992">
        <ele>1949.3</ele>
        <time>2018-12-31T15:18:33Z</time>
      </trkpt>
      <trkpt lat="46.11767" lon="7.31984">
        <ele>1946.1</ele>
        <time>2018-12-31T15:19:33Z</time>
      </trkpt>
      <trkpt lat="46.11795" lon="7.31976">
        <ele>1942.5</ele>
        <time>2018-12-31T15:19:43Z</time>
      </trkpt>
      <trkpt lat="46.11818" lon="7.31966">
        <ele>1938.6</ele>
        <time>2018-12-31T15:19:48Z</time>
      </trkpt>
      <trkpt lat="46.1185" lon="7.31961">
        <ele>1932.2</ele>
        <time>2018-12-31T15:19:53Z</time>
      </trkpt>
      <trkpt lat="46.11883" lon="7.3194">
        <ele>1928.4</ele>
        <time>2018-12-31T15:19:58Z</time>
      </trkpt>
      <trkpt lat="46.11907" lon="7.31951">
        <ele>1925.8</ele>
        <time>2018-12-31T15:20:03Z</time>
      </trkpt>
      <trkpt lat="46.11931" lon="7.31935">
        <ele>1920.6</ele>
        <time>2018-12-31T15:20:08Z</time>
      </trkpt>
      <trkpt lat="46.11965" lon="7.31918">
        <ele>1916.9</ele>
        <time>2018-12-31T15:20:13Z</time>
      </trkpt>
      <trkpt lat="46.11999" lon="7.31905">
        <ele>1912.3</ele>
        <time>2018-12-31T15:20:18Z</time>
      </trkpt>
      <trkpt lat="46.12032" lon="7.31877">
        <ele>1904.9</ele>
        <time>2018-12-31T15:20:23Z</time>
      </trkpt>
      <trkpt lat="46.12057" lon="7.31847">
        <ele>1900.7</ele>
        <time>2018-12-31T15:20:28Z</time>
      </trkpt>
      <trkpt lat="46.12078" lon="7.31844">
        <ele>1899.2</ele>
        <time>2018-12-31T15:20:33Z</time>
      </trkpt>
      <trkpt lat="46.12106" lon="7.31836">
        <ele>1896.2</ele>
        <time>2018-12-31T15:20:38Z</time>
      </trkpt>
      <trkpt lat="46.1211" lon="7.31793">
        <ele>1885.9</ele>
        <time>2018-12-31T15:21:03Z</time>
      </trkpt>
      <trkpt lat="46.12116" lon="7.31759">
        <ele>1881</ele>
        <time>2018-12-31T15:21:08Z</time>
      </trkpt>
      <trkpt lat="46.12145" lon="7.31738">
        <ele>1873.4</ele>
        <time>2018-12-31T15:21:13Z</time>
      </trkpt>
      <trkpt lat="46.12181" lon="7.31715">
        <ele>1864.7</ele>
        <time>2018-12-31T15:21:18Z</time>
      </trkpt>
      <trkpt lat="46.12211" lon="7.31723">
        <ele>1860</ele>
        <time>2018-12-31T15:21:23Z</time>
      </trkpt>
      <trkpt lat="46.12224" lon="7.31728">
        <ele>1858.8</ele>
        <time>2018-12-31T15:21:28Z</time>
      </trkpt>
      <trkpt lat="46.12254" lon="7.31706">
        <ele>1855.5</ele>
        <time>2018-12-31T15:21:38Z</time>
      </trkpt>
      <trkpt lat="46.12281" lon="7.31708">
        <ele>1852</ele>
        <time>2018-12-31T15:21:43Z</time>
      </trkpt>
      <trkpt lat="46.12301" lon="7.31711">
        <ele>1844.1</ele>
        <time>2018-12-31T15:21:48Z</time>
      </trkpt>
      <trkpt lat="46.12331" lon="7.31718">
        <ele>1834.5</ele>
        <time>2018-12-31T15:21:53Z</time>
      </trkpt>
      <trkpt lat="46.12344" lon="7.31742">
        <ele>1830.1</ele>
        <time>2018-12-31T15:21:58Z</time>
      </trkpt>
      <trkpt lat="46.12353" lon="7.31756">
        <ele>1828</ele>
        <time>2018-12-31T15:22:03Z</time>
      </trkpt>
      <trkpt lat="46.1238" lon="7.31785">
        <ele>1831.1</ele>
        <time>2018-12-31T15:22:13Z</time>
      </trkpt>
      <trkpt lat="46.12409" lon="7.31793">
        <ele>1836.3</ele>
        <time>2018-12-31T15:22:18Z</time>
      </trkpt>
      <trkpt lat="46.12442" lon="7.31801">
        <ele>1836.5</ele>
        <time>2018-12-31T15:22:23Z</time>
      </trkpt>
      <trkpt lat="46.1247" lon="7.31814">
        <ele>1833.9</ele>
        <time>2018-12-31T15:22:28Z</time>
      </trkpt>
      <trkpt lat="46.12499" lon="7.31824">
        <ele>1833.1</ele>
        <time>2018-12-31T15:22:33Z</time>
      </trkpt>
      <trkpt lat="46.12526" lon="7.31828">
        <ele>1828.8</ele>
        <time>2018-12-31T15:22:38Z</time>
      </trkpt>
      <trkpt lat="46.12549" lon="7.3183">
        <ele>1821.3</ele>
        <time>2018-12-31T15:22:53Z</time>
      </trkpt>
      <trkpt lat="46.12581" lon="7.31827">
        <ele>1821.4</ele>
        <time>2018-12-31T15:22:58Z</time>
      </trkpt>
      <trkpt lat="46.12615" lon="7.31822">
        <ele>1821.2</ele>
        <time>2018-12-31T15:23:03Z</time>
      </trkpt>
      <trkpt lat="46.12649" lon="7.31832">
        <ele>1820.1</ele>
        <time>2018-12-31T15:23:08Z</time>
      </trkpt>
      <trkpt lat="46.12691" lon="7.31828">
        <ele>1813.7</ele>
        <time>2018-12-31T15:23:13Z</time>
      </trkpt>
      <trkpt lat="46.12732" lon="7.31834">
        <ele>1809</ele>
        <time>2018-12-31T15:23:18Z</time>
      </trkpt>
      <trkpt lat="46.12774" lon="7.3184">
        <ele>1806.3</ele>
        <time>2018-12-31T15:23:23Z</time>
      </trkpt>
      <trkpt lat="46.12818" lon="7.31831">
        <ele>1799.5</ele>
        <time>2018-12-31T15:23:28Z</time>
      </trkpt>
      <trkpt lat="46.12853" lon="7.31802">
        <ele>1795</ele>
        <time>2018-12-31T15:23:33Z</time>
      </trkpt>
      <trkpt lat="46.12887" lon="7.31791">
        <ele>1789.2</ele>
        <time>2018-12-31T15:23:38Z</time>
      </trkpt>
      <trkpt lat="46.12917" lon="7.31784">
        <ele>1786.3</ele>
        <time>2018-12-31T15:23:43Z</time>
      </trkpt>
      <trkpt lat="46.12941" lon="7.31768">
        <ele>1782.8</ele>
        <time>2018-12-31T15:23:48Z</time>
      </trkpt>
      <trkpt lat="46.12964" lon="7.31755">
        <ele>1781.7</ele>
        <time>2018-12-31T15:23:53Z</time>
      </trkpt>
      <trkpt lat="46.12984" lon="7.31744">
        <ele>1780.6</ele>
        <time>2018-12-31T15:23:58Z</time>
      </trkpt>
      <trkpt lat="46.13002" lon="7.31733">
        <ele>1779.3</ele>
        <time>2018-12-31T15:24:03Z</time>
      </trkpt>
      <trkpt lat="46.13022" lon="7.31725">
        <ele>1777</ele>
        <time>2018-12-31T15:24:08Z</time>
      </trkpt>
      <trkpt lat="46.13045" lon="7.31722">
        <ele>1774.8</ele>
        <time>2018-12-31T15:24:13Z</time>
      </trkpt>
      <trkpt lat="46.13069" lon="7.31733">
        <ele>1774.5</ele>
        <time>2018-12-31T15:24:18Z</time>
      </trkpt>
      <trkpt lat="46.13086" lon="7.31736">
        <ele>1771</ele>
        <time>2018-12-31T15:24:23Z</time>
      </trkpt>
      <trkpt lat="46.13102" lon="7.31738">
        <ele>1769.8</ele>
        <time>2018-12-31T15:24:28Z</time>
      </trkpt>
      <trkpt lat="46.1312" lon="7.3175">
        <ele>1771.9</ele>
        <time>2018-12-31T15:24:33Z</time>
      </trkpt>
      <trkpt lat="46.13139" lon="7.31752">
        <ele>1770.2</ele>
        <time>2018-12-31T15:24:38Z</time>
      </trkpt>
      <trkpt lat="46.13157" lon="7.31761">
        <ele>1770.6</ele>
        <time>2018-12-31T15:24:43Z</time>
      </trkpt>
      <trkpt lat="46.13175" lon="7.31778">
        <ele>1774.7</ele>
        <time>2018-12-31T15:24:53Z</time>
      </trkpt>
      <trkpt lat="46.13189" lon="7.31788">
        <ele>1775</ele>
        <time>2018-12-31T15:24:58Z</time>
      </trkpt>
      <trkpt lat="46.13206" lon="7.31805">
        <ele>1774.7</ele>
        <time>2018-12-31T15:25:03Z</time>
      </trkpt>
      <trkpt lat="46.13233" lon="7.31816">
        <ele>1773.9</ele>
        <time>2018-12-31T15:25:08Z</time>
      </trkpt>
      <trkpt lat="46.1326" lon="7.31835">
        <ele>1772.3</ele>
        <time>2018-12-31T15:25:13Z</time>
      </trkpt>
      <trkpt lat="46.13292" lon="7.31857">
        <ele>1769</ele>
        <time>2018-12-31T15:25:18Z</time>
      </trkpt>
      <trkpt lat="46.13325" lon="7.31875">
        <ele>1766.1</ele>
        <time>2018-12-31T15:25:23Z</time>
      </trkpt>
      <trkpt lat="46.13343" lon="7.31886">
        <ele>1760.6</ele>
        <time>2018-12-31T15:25:28Z</time>
      </trkpt>
      <trkpt lat="46.1336" lon="7.31892">
        <ele>1756.7</ele>
        <time>2018-12-31T15:25:33Z</time>
      </trkpt>
      <trkpt lat="46.13398" lon="7.31869">
        <ele>1753</ele>
        <time>2018-12-31T15:25:38Z</time>
      </trkpt>
      <trkpt lat="46.13428" lon="7.31843">
        <ele>1750.9</ele>
        <time>2018-12-31T15:25:43Z</time>
      </trkpt>
      <trkpt lat="46.13449" lon="7.3181">
        <ele>1748.3</ele>
        <time>2018-12-31T15:25:48Z</time>
      </trkpt>
      <trkpt lat="46.1347" lon="7.31784">
        <ele>1744.9</ele>
        <time>2018-12-31T15:25:53Z</time>
      </trkpt>
      <trkpt lat="46.13495" lon="7.3176">
        <ele>1742.7</ele>
        <time>2018-12-31T15:25:58Z</time>
      </trkpt>
      <trkpt lat="46.13518" lon="7.31738">
        <ele>1741.3</ele>
        <time>2018-12-31T15:26:03Z</time>
      </trkpt>
      <trkpt lat="46.13536" lon="7.3173">
        <ele>1741.3</ele>
        <time>2018-12-31T15:26:08Z</time>
      </trkpt>
      <trkpt lat="46.13551" lon="7.31704">
        <ele>1738.4</ele>
        <time>2018-12-31T15:26:18Z</time>
      </trkpt>
      <trkpt lat="46.13554" lon="7.31684">
        <ele>1733.3</ele>
        <time>2018-12-31T15:27:38Z</time>
      </trkpt>
    </trkseg>
  </trk>
</gpx>